<?xml version='1.0' encoding='UTF-8'?><gpx version="1.1" creator="JPX - https://github.com/jenetics/jpx" xmlns="http://www.topografix.com/GPX/1/1"><trk><trkseg><trkpt lat="44.81461790387248" lon="7.2478770119015055"><ele>475.99999999999994</ele><time>2026-05-03T13:06:43Z</time></trkpt><trkpt lat="44.81460711868942" lon="7.247992004779874"><ele>476.0</ele><time>2026-05-03T13:06:46Z</time></trkpt><trkpt lat="44.81459284879966" lon="7.248105698750853"><ele>476.0</ele><time>2026-05-03T13:06:48Z</time></trkpt><trkpt lat="44.81456613570365" lon="7.248233374108906"><ele>476.0</ele><time>2026-05-03T13:06:50Z</time></trkpt><trkpt lat="44.81455332492354" lon="7.248341817634054"><ele>475.99999999999994</ele><time>2026-05-03T13:06:52Z</time></trkpt><trkpt lat="44.81454466688325" lon="7.248461865933781"><ele>476.0</ele><time>2026-05-03T13:06:54Z</time></trkpt><trkpt lat="44.81453369451903" lon="7.248567385894205"><ele>475.66666666666663</ele><time>2026-05-03T13:06:56Z</time></trkpt><trkpt lat="44.81451763555241" lon="7.248656893787608"><ele>475.3333333333333</ele><time>2026-05-03T13:06:59Z</time></trkpt><trkpt lat="44.81458488332623" lon="7.248721765616764"><ele>475.0</ele><time>2026-05-03T13:07:02Z</time></trkpt><trkpt lat="44.81465610391564" lon="7.248705914600046"><ele>474.66666666666663</ele><time>2026-05-03T13:07:04Z</time></trkpt><trkpt lat="44.8147404366484" lon="7.248693670774319"><ele>474.3333333333333</ele><time>2026-05-03T13:07:06Z</time></trkpt><trkpt lat="44.81481104741438" lon="7.248698124877915"><ele>474.0</ele><time>2026-05-03T13:07:08Z</time></trkpt><trkpt lat="44.81488950823196" lon="7.24874995609964"><ele>474.0</ele><time>2026-05-03T13:07:10Z</time></trkpt><trkpt lat="44.8149716706136" lon="7.248764765016692"><ele>474.0</ele><time>2026-05-03T13:07:12Z</time></trkpt><trkpt lat="44.81505561640173" lon="7.248758604911793"><ele>474.0</ele><time>2026-05-03T13:07:14Z</time></trkpt><trkpt lat="44.815142096895194" lon="7.248779556567582"><ele>474.0</ele><time>2026-05-03T13:07:16Z</time></trkpt><trkpt lat="44.81522917303628" lon="7.248801033130155"><ele>474.0</ele><time>2026-05-03T13:07:18Z</time></trkpt><trkpt lat="44.81530650835597" lon="7.248823138269875"><ele>474.0</ele><time>2026-05-03T13:07:20Z</time></trkpt><trkpt lat="44.81537081035041" lon="7.2488576938698355"><ele>474.0</ele><time>2026-05-03T13:07:22Z</time></trkpt><trkpt lat="44.815431961496735" lon="7.248970113043868"><ele>474.0</ele><time>2026-05-03T13:07:24Z</time></trkpt><trkpt lat="44.81544272260604" lon="7.249124835742233"><ele>474.0</ele><time>2026-05-03T13:07:26Z</time></trkpt><trkpt lat="44.815476455537336" lon="7.249273521599942"><ele>474.0</ele><time>2026-05-03T13:07:28Z</time></trkpt><trkpt lat="44.815509162826345" lon="7.249428575720826"><ele>474.0</ele><time>2026-05-03T13:07:30Z</time></trkpt><trkpt lat="44.815548203686895" lon="7.24958720919832"><ele>474.0</ele><time>2026-05-03T13:07:32.001Z</time></trkpt><trkpt lat="44.815591961750705" lon="7.249743808605283"><ele>474.0</ele><time>2026-05-03T13:07:34.001Z</time></trkpt><trkpt lat="44.81564336782609" lon="7.2499062037728805"><ele>474.0</ele><time>2026-05-03T13:07:36.001Z</time></trkpt><trkpt lat="44.81566231357523" lon="7.249993561867985"><ele>474.0</ele><time>2026-05-03T13:07:37.001Z</time></trkpt><trkpt lat="44.81570450923398" lon="7.250163636448138"><ele>474.0</ele><time>2026-05-03T13:07:39.001Z</time></trkpt><trkpt lat="44.815727818955594" lon="7.250247530678145"><ele>473.8571428571428</ele><time>2026-05-03T13:07:40.001Z</time></trkpt><trkpt lat="44.81574281896369" lon="7.250340275126944"><ele>473.71428571428567</ele><time>2026-05-03T13:07:41.001Z</time></trkpt><trkpt lat="44.81575393759423" lon="7.250429550724314"><ele>473.57142857142856</ele><time>2026-05-03T13:07:42.001Z</time></trkpt><trkpt lat="44.81575765590539" lon="7.250524072183918"><ele>473.4285714285714</ele><time>2026-05-03T13:07:43.001Z</time></trkpt><trkpt lat="44.815766906669545" lon="7.250620925333404"><ele>473.2857142857142</ele><time>2026-05-03T13:07:44.001Z</time></trkpt><trkpt lat="44.81575583289189" lon="7.250713025328017"><ele>473.14285714285717</ele><time>2026-05-03T13:07:45.001Z</time></trkpt><trkpt lat="44.815757861704284" lon="7.25080643948337"><ele>473.0</ele><time>2026-05-03T13:07:46.001Z</time></trkpt><trkpt lat="44.81575805378758" lon="7.250906507842903"><ele>472.7142857142857</ele><time>2026-05-03T13:07:47.001Z</time></trkpt><trkpt lat="44.81575820122936" lon="7.251002503933338"><ele>472.42857142857144</ele><time>2026-05-03T13:07:48.001Z</time></trkpt><trkpt lat="44.81575873753588" lon="7.251096385883246"><ele>472.14285714285717</ele><time>2026-05-03T13:07:49.001Z</time></trkpt><trkpt lat="44.815759255025846" lon="7.251186974101236"><ele>471.8571428571429</ele><time>2026-05-03T13:07:50.001Z</time></trkpt><trkpt lat="44.815759831899015" lon="7.251287957040642"><ele>471.57142857142856</ele><time>2026-05-03T13:07:51.001Z</time></trkpt><trkpt lat="44.815760357321096" lon="7.251379934317067"><ele>471.28571428571433</ele><time>2026-05-03T13:07:52.001Z</time></trkpt><trkpt lat="44.81575995378679" lon="7.251473467346838"><ele>471.00000000000006</ele><time>2026-05-03T13:07:53.001Z</time></trkpt><trkpt lat="44.815759953786674" lon="7.251565697633613"><ele>470.8333333333333</ele><time>2026-05-03T13:07:54.001Z</time></trkpt><trkpt lat="44.815759953787285" lon="7.251659015122374"><ele>470.66666666666663</ele><time>2026-05-03T13:07:55.001Z</time></trkpt><trkpt lat="44.815760101658284" lon="7.251748975172775"><ele>470.5</ele><time>2026-05-03T13:07:56.001Z</time></trkpt><trkpt lat="44.815760338772314" lon="7.251838983639719"><ele>470.3333333333333</ele><time>2026-05-03T13:07:57.001Z</time></trkpt><trkpt lat="44.81576057342528" lon="7.251928058036002"><ele>470.16666666666663</ele><time>2026-05-03T13:07:58.001Z</time></trkpt><trkpt lat="44.81576088698648" lon="7.252047086432026"><ele>470.0</ele><time>2026-05-03T13:08:00.001Z</time></trkpt><trkpt lat="44.81592756707886" lon="7.252104241918725"><ele>470.4</ele><time>2026-05-03T13:08:03.001Z</time></trkpt><trkpt lat="44.81599672152456" lon="7.25208918382752"><ele>470.8</ele><time>2026-05-03T13:08:04.001Z</time></trkpt><trkpt lat="44.81606024307918" lon="7.252076979186245"><ele>471.20000000000005</ele><time>2026-05-03T13:08:05.001Z</time></trkpt><trkpt lat="44.81616161788173" lon="7.252052197422656"><ele>471.6</ele><time>2026-05-03T13:08:07.001Z</time></trkpt><trkpt lat="44.81627574681812" lon="7.252058322410044"><ele>472.0</ele><time>2026-05-03T13:08:09.001Z</time></trkpt><trkpt lat="44.81639005953876" lon="7.252043530689496"><ele>472.0</ele><time>2026-05-03T13:08:11.001Z</time></trkpt><trkpt lat="44.81650267094191" lon="7.252028250641621"><ele>472.00000000000006</ele><time>2026-05-03T13:08:13.001Z</time></trkpt><trkpt lat="44.816606705451534" lon="7.251989157239179"><ele>472.00000000000006</ele><time>2026-05-03T13:08:15.001Z</time></trkpt><trkpt lat="44.81671460461875" lon="7.251974822165526"><ele>472.0</ele><time>2026-05-03T13:08:17.001Z</time></trkpt><trkpt lat="44.81681867033913" lon="7.251965126675774"><ele>472.0</ele><time>2026-05-03T13:08:19.001Z</time></trkpt><trkpt lat="44.816918792952315" lon="7.2519530509752705"><ele>472.6</ele><time>2026-05-03T13:08:21.001Z</time></trkpt><trkpt lat="44.817016332790935" lon="7.251941542684533"><ele>473.20000000000005</ele><time>2026-05-03T13:08:23Z</time></trkpt><trkpt lat="44.817111087880996" lon="7.25193402786122"><ele>473.8</ele><time>2026-05-03T13:08:25Z</time></trkpt><trkpt lat="44.81720235276374" lon="7.251932956038856"><ele>474.4</ele><time>2026-05-03T13:08:27Z</time></trkpt><trkpt lat="44.81728836066777" lon="7.251921533743014"><ele>475.0</ele><time>2026-05-03T13:08:29Z</time></trkpt><trkpt lat="44.81737337040352" lon="7.251907615446164"><ele>475.00000000000006</ele><time>2026-05-03T13:08:31Z</time></trkpt><trkpt lat="44.81745714971541" lon="7.2519049119700005"><ele>475.0</ele><time>2026-05-03T13:08:33Z</time></trkpt><trkpt lat="44.817539954902784" lon="7.251887652419118"><ele>475.0</ele><time>2026-05-03T13:08:35Z</time></trkpt><trkpt lat="44.81762309314122" lon="7.251877245629795"><ele>475.0</ele><time>2026-05-03T13:08:37Z</time></trkpt><trkpt lat="44.81769822722335" lon="7.25186969678159"><ele>475.00000000000006</ele><time>2026-05-03T13:08:39Z</time></trkpt><trkpt lat="44.81777011000285" lon="7.251864872653263"><ele>475.0</ele><time>2026-05-03T13:08:41Z</time></trkpt><trkpt lat="44.81783743421058" lon="7.251853889403568"><ele>475.4</ele><time>2026-05-03T13:08:43Z</time></trkpt><trkpt lat="44.81790815239001" lon="7.251985391636191"><ele>475.8</ele><time>2026-05-03T13:08:46Z</time></trkpt><trkpt lat="44.8179319093999" lon="7.252113597761117"><ele>476.20000000000005</ele><time>2026-05-03T13:08:48Z</time></trkpt><trkpt lat="44.81797479093506" lon="7.252240341689694"><ele>476.6</ele><time>2026-05-03T13:08:50Z</time></trkpt><trkpt lat="44.81801689768278" lon="7.2523713400818535"><ele>477.0</ele><time>2026-05-03T13:08:52Z</time></trkpt><trkpt lat="44.818044546089716" lon="7.252522753241353"><ele>477.0</ele><time>2026-05-03T13:08:54Z</time></trkpt><trkpt lat="44.81808690020273" lon="7.252672153902418"><ele>477.0</ele><time>2026-05-03T13:08:56Z</time></trkpt><trkpt lat="44.81813073737957" lon="7.252822922134019"><ele>477.0</ele><time>2026-05-03T13:08:58Z</time></trkpt><trkpt lat="44.81817405966199" lon="7.252982939424423"><ele>477.0</ele><time>2026-05-03T13:09:00Z</time></trkpt><trkpt lat="44.818208451194664" lon="7.253146909151635"><ele>476.5</ele><time>2026-05-03T13:09:02Z</time></trkpt><trkpt lat="44.818250042707106" lon="7.253310727902067"><ele>476.0</ele><time>2026-05-03T13:09:04Z</time></trkpt><trkpt lat="44.81828811887392" lon="7.253477583573128"><ele>475.5</ele><time>2026-05-03T13:09:06Z</time></trkpt><trkpt lat="44.81833261990189" lon="7.2536393424256325"><ele>475.0</ele><time>2026-05-03T13:09:08Z</time></trkpt><trkpt lat="44.818380267853584" lon="7.253799529695445"><ele>474.5</ele><time>2026-05-03T13:09:10Z</time></trkpt><trkpt lat="44.81841664818891" lon="7.25396512059958"><ele>474.0</ele><time>2026-05-03T13:09:12Z</time></trkpt><trkpt lat="44.81845667075264" lon="7.254122129911235"><ele>473.5</ele><time>2026-05-03T13:09:14Z</time></trkpt><trkpt lat="44.818500070660825" lon="7.2542778488853745"><ele>473.0</ele><time>2026-05-03T13:09:16Z</time></trkpt><trkpt lat="44.81854294891925" lon="7.2544354027158615"><ele>475.0</ele><time>2026-05-03T13:09:18Z</time></trkpt><trkpt lat="44.818566517843884" lon="7.254598406646127"><ele>477.0</ele><time>2026-05-03T13:09:20Z</time></trkpt><trkpt lat="44.81860787902166" lon="7.254752380588948"><ele>479.0</ele><time>2026-05-03T13:09:22Z</time></trkpt><trkpt lat="44.81866158132606" lon="7.254897228496874"><ele>481.0</ele><time>2026-05-03T13:09:24Z</time></trkpt><trkpt lat="44.81870029777421" lon="7.255050788923775"><ele>481.0</ele><time>2026-05-03T13:09:26Z</time></trkpt><trkpt lat="44.81873853184452" lon="7.2551984887496985"><ele>481.0</ele><time>2026-05-03T13:09:28Z</time></trkpt><trkpt lat="44.81877452978175" lon="7.255311286462054"><ele>481.0</ele><time>2026-05-03T13:09:30Z</time></trkpt><trkpt lat="44.81881495192212" lon="7.255433299865887"><ele>481.0</ele><time>2026-05-03T13:09:32Z</time></trkpt><trkpt lat="44.81884567456228" lon="7.255569333882146"><ele>481.0</ele><time>2026-05-03T13:09:34Z</time></trkpt><trkpt lat="44.818885799572335" lon="7.255709534475744"><ele>481.0</ele><time>2026-05-03T13:09:36Z</time></trkpt><trkpt lat="44.81891469399961" lon="7.255848874949537"><ele>481.0</ele><time>2026-05-03T13:09:38Z</time></trkpt><trkpt lat="44.81895738995919" lon="7.25598720134151"><ele>481.0</ele><time>2026-05-03T13:09:40Z</time></trkpt><trkpt lat="44.81898930195091" lon="7.256122910027524"><ele>481.0</ele><time>2026-05-03T13:09:42.001Z</time></trkpt><trkpt lat="44.819008204573876" lon="7.256255650649201"><ele>481.0</ele><time>2026-05-03T13:09:44.001Z</time></trkpt><trkpt lat="44.81899994821045" lon="7.256400124246694"><ele>479.83333333333337</ele><time>2026-05-03T13:09:46.001Z</time></trkpt><trkpt lat="44.818997816397975" lon="7.25655375820774"><ele>478.6666666666667</ele><time>2026-05-03T13:09:48.001Z</time></trkpt><trkpt lat="44.819000152321664" lon="7.2566781782866645"><ele>477.5</ele><time>2026-05-03T13:09:50.001Z</time></trkpt><trkpt lat="44.81899218404843" lon="7.256800351037851"><ele>476.33333333333337</ele><time>2026-05-03T13:09:53.001Z</time></trkpt><trkpt lat="44.81896285435764" lon="7.256886698959633"><ele>475.1666666666667</ele><time>2026-05-03T13:09:55.001Z</time></trkpt><trkpt lat="44.81898329129329" lon="7.256973074605629"><ele>474.0</ele><time>2026-05-03T13:09:57.001Z</time></trkpt><trkpt lat="44.81894080832253" lon="7.257044051980057"><ele>474.0</ele><time>2026-05-03T13:09:59.001Z</time></trkpt><trkpt lat="44.818832033516095" lon="7.257053942351933"><ele>474.0</ele><time>2026-05-03T13:10:01.001Z</time></trkpt><trkpt lat="44.81873186352956" lon="7.257075632901317"><ele>474.0</ele><time>2026-05-03T13:10:03.001Z</time></trkpt><trkpt lat="44.81865487058609" lon="7.257177699883916"><ele>474.0</ele><time>2026-05-03T13:10:05.001Z</time></trkpt><trkpt lat="44.818658567828614" lon="7.257331367951471"><ele>474.0</ele><time>2026-05-03T13:10:07.001Z</time></trkpt><trkpt lat="44.81863982286747" lon="7.2575077572877"><ele>474.0</ele><time>2026-05-03T13:10:09.001Z</time></trkpt><trkpt lat="44.81861585745915" lon="7.25767916419491"><ele>474.0</ele><time>2026-05-03T13:10:11.001Z</time></trkpt><trkpt lat="44.81860271987006" lon="7.257772023803843"><ele>474.0</ele><time>2026-05-03T13:10:12.001Z</time></trkpt><trkpt lat="44.81858788482367" lon="7.257864144582389"><ele>474.0</ele><time>2026-05-03T13:10:13.001Z</time></trkpt><trkpt lat="44.818569446749315" lon="7.257954064103666"><ele>474.0</ele><time>2026-05-03T13:10:14.001Z</time></trkpt><trkpt lat="44.818554497352544" lon="7.258044764525656"><ele>474.0</ele><time>2026-05-03T13:10:15.001Z</time></trkpt><trkpt lat="44.818519016848846" lon="7.258216945134366"><ele>473.75</ele><time>2026-05-03T13:10:17.001Z</time></trkpt><trkpt lat="44.818486324258046" lon="7.25838741997513"><ele>473.5</ele><time>2026-05-03T13:10:19.001Z</time></trkpt><trkpt lat="44.81845108152366" lon="7.258557964701802"><ele>473.25</ele><time>2026-05-03T13:10:21.001Z</time></trkpt><trkpt lat="44.818412722155905" lon="7.258722166582284"><ele>473.0</ele><time>2026-05-03T13:10:23.001Z</time></trkpt><trkpt lat="44.81837414410651" lon="7.258886333309154"><ele>471.8571428571429</ele><time>2026-05-03T13:10:25.001Z</time></trkpt><trkpt lat="44.8183454032763" lon="7.259042815410131"><ele>470.71428571428567</ele><time>2026-05-03T13:10:27.001Z</time></trkpt><trkpt lat="44.81833229715962" lon="7.259131143117394"><ele>469.57142857142856</ele><time>2026-05-03T13:10:28Z</time></trkpt><trkpt lat="44.81832001095173" lon="7.259228416159912"><ele>468.42857142857144</ele><time>2026-05-03T13:10:29Z</time></trkpt><trkpt lat="44.818296594542055" lon="7.25931583807633"><ele>467.28571428571433</ele><time>2026-05-03T13:10:30Z</time></trkpt><trkpt lat="44.81828064682289" lon="7.2594042484110535"><ele>466.1428571428571</ele><time>2026-05-03T13:10:31Z</time></trkpt><trkpt lat="44.818262304056795" lon="7.259498211613015"><ele>465.0</ele><time>2026-05-03T13:10:32Z</time></trkpt><trkpt lat="44.818240801121625" lon="7.259590812515282"><ele>465.0</ele><time>2026-05-03T13:10:33Z</time></trkpt><trkpt lat="44.81821963366838" lon="7.25968483185431"><ele>465.0</ele><time>2026-05-03T13:10:34Z</time></trkpt><trkpt lat="44.81820117823611" lon="7.25977848292635"><ele>465.0</ele><time>2026-05-03T13:10:35Z</time></trkpt><trkpt lat="44.818180668480416" lon="7.259874359253239"><ele>465.0</ele><time>2026-05-03T13:10:36Z</time></trkpt><trkpt lat="44.818159546978464" lon="7.259969551542419"><ele>465.0</ele><time>2026-05-03T13:10:37Z</time></trkpt><trkpt lat="44.81813089276264" lon="7.260066040285766"><ele>465.0</ele><time>2026-05-03T13:10:38Z</time></trkpt><trkpt lat="44.81811360724662" lon="7.260163458607519"><ele>465.0</ele><time>2026-05-03T13:10:39Z</time></trkpt><trkpt lat="44.81809353960363" lon="7.260266411549038"><ele>464.57142857142856</ele><time>2026-05-03T13:10:40Z</time></trkpt><trkpt lat="44.81807236224494" lon="7.260363231217967"><ele>464.14285714285717</ele><time>2026-05-03T13:10:41Z</time></trkpt><trkpt lat="44.818048843263384" lon="7.260459923989234"><ele>463.7142857142857</ele><time>2026-05-03T13:10:42Z</time></trkpt><trkpt lat="44.81802588055212" lon="7.260557033904032"><ele>463.2857142857143</ele><time>2026-05-03T13:10:43Z</time></trkpt><trkpt lat="44.81800096835957" lon="7.260656701566419"><ele>462.8571428571429</ele><time>2026-05-03T13:10:44Z</time></trkpt><trkpt lat="44.817977070882606" lon="7.2607582581785834"><ele>462.42857142857144</ele><time>2026-05-03T13:10:45Z</time></trkpt><trkpt lat="44.817953384268215" lon="7.260859417383701"><ele>462.0</ele><time>2026-05-03T13:10:46Z</time></trkpt><trkpt lat="44.81792785301699" lon="7.260960891674603"><ele>461.8333333333333</ele><time>2026-05-03T13:10:47Z</time></trkpt><trkpt lat="44.8179064207513" lon="7.261065015076086"><ele>461.66666666666663</ele><time>2026-05-03T13:10:48Z</time></trkpt><trkpt lat="44.8178831014196" lon="7.2611678427731485"><ele>461.5</ele><time>2026-05-03T13:10:49Z</time></trkpt><trkpt lat="44.817858055554815" lon="7.2612693361024006"><ele>461.3333333333333</ele><time>2026-05-03T13:10:50Z</time></trkpt><trkpt lat="44.817830737307574" lon="7.261375645339569"><ele>461.16666666666663</ele><time>2026-05-03T13:10:51Z</time></trkpt><trkpt lat="44.81780706633941" lon="7.261478858139692"><ele>461.0</ele><time>2026-05-03T13:10:52Z</time></trkpt><trkpt lat="44.81778268328128" lon="7.261585957463514"><ele>461.3333333333333</ele><time>2026-05-03T13:10:53Z</time></trkpt><trkpt lat="44.817760753100835" lon="7.261689598676294"><ele>461.66666666666663</ele><time>2026-05-03T13:10:54Z</time></trkpt><trkpt lat="44.81773677259791" lon="7.261785287780575"><ele>462.0</ele><time>2026-05-03T13:10:55Z</time></trkpt><trkpt lat="44.81770413997775" lon="7.2618828361323935"><ele>462.33333333333337</ele><time>2026-05-03T13:10:56Z</time></trkpt><trkpt lat="44.81767257300029" lon="7.26198754883616"><ele>462.6666666666667</ele><time>2026-05-03T13:10:57Z</time></trkpt><trkpt lat="44.817647420264194" lon="7.262092270357858"><ele>463.0</ele><time>2026-05-03T13:10:58Z</time></trkpt><trkpt lat="44.8176202352437" lon="7.262196905198677"><ele>462.1666666666667</ele><time>2026-05-03T13:10:59Z</time></trkpt><trkpt lat="44.8175982620132" lon="7.262303826476841"><ele>461.33333333333337</ele><time>2026-05-03T13:11:00Z</time></trkpt><trkpt lat="44.81758193475107" lon="7.262413617744325"><ele>460.5</ele><time>2026-05-03T13:11:01Z</time></trkpt><trkpt lat="44.81756666241236" lon="7.262518999399536"><ele>459.66666666666663</ele><time>2026-05-03T13:11:02Z</time></trkpt><trkpt lat="44.81754529199624" lon="7.262621272644613"><ele>458.8333333333333</ele><time>2026-05-03T13:11:03Z</time></trkpt><trkpt lat="44.81753252258119" lon="7.262722261880682"><ele>458.0</ele><time>2026-05-03T13:11:04Z</time></trkpt><trkpt lat="44.81752950421715" lon="7.2628276607447635"><ele>457.99999999999994</ele><time>2026-05-03T13:11:05Z</time></trkpt><trkpt lat="44.817529836096774" lon="7.262931166240355"><ele>458.0</ele><time>2026-05-03T13:11:06Z</time></trkpt><trkpt lat="44.81753700403807" lon="7.263035687530037"><ele>458.0</ele><time>2026-05-03T13:11:07Z</time></trkpt><trkpt lat="44.81755005294795" lon="7.263141305364748"><ele>458.0</ele><time>2026-05-03T13:11:08Z</time></trkpt><trkpt lat="44.817569034105375" lon="7.2632495459351105"><ele>457.99999999999994</ele><time>2026-05-03T13:11:09Z</time></trkpt><trkpt lat="44.81758482719668" lon="7.263353628057057"><ele>458.0</ele><time>2026-05-03T13:11:10Z</time></trkpt><trkpt lat="44.81760353594741" lon="7.263454629006493"><ele>458.1428571428571</ele><time>2026-05-03T13:11:11Z</time></trkpt><trkpt lat="44.81762108883319" lon="7.263554423517225"><ele>458.28571428571433</ele><time>2026-05-03T13:11:12Z</time></trkpt><trkpt lat="44.817642812298644" lon="7.263654221110443"><ele>458.42857142857144</ele><time>2026-05-03T13:11:13Z</time></trkpt><trkpt lat="44.817671122294186" lon="7.263746990046324"><ele>458.57142857142856</ele><time>2026-05-03T13:11:14Z</time></trkpt><trkpt lat="44.817705535038186" lon="7.263830415266035"><ele>458.71428571428567</ele><time>2026-05-03T13:11:15Z</time></trkpt><trkpt lat="44.817743336038184" lon="7.2639099105356015"><ele>458.8571428571429</ele><time>2026-05-03T13:11:16Z</time></trkpt><trkpt lat="44.81778498953962" lon="7.263988387636178"><ele>459.0</ele><time>2026-05-03T13:11:17Z</time></trkpt><trkpt lat="44.817827179001085" lon="7.264065135337653"><ele>459.0</ele><time>2026-05-03T13:11:18Z</time></trkpt><trkpt lat="44.81786523163629" lon="7.264147215075357"><ele>459.0</ele><time>2026-05-03T13:11:19Z</time></trkpt><trkpt lat="44.81789587302675" lon="7.264236597243159"><ele>459.0</ele><time>2026-05-03T13:11:20Z</time></trkpt><trkpt lat="44.81792074427405" lon="7.264328472592879"><ele>459.0</ele><time>2026-05-03T13:11:21Z</time></trkpt><trkpt lat="44.81794284350519" lon="7.264420950008528"><ele>459.0</ele><time>2026-05-03T13:11:22Z</time></trkpt><trkpt lat="44.81796485771851" lon="7.26451296888991"><ele>459.0</ele><time>2026-05-03T13:11:23Z</time></trkpt><trkpt lat="44.817978486920126" lon="7.264610862952309"><ele>459.0</ele><time>2026-05-03T13:11:24Z</time></trkpt><trkpt lat="44.817985148030175" lon="7.2647073303632075"><ele>458.7142857142857</ele><time>2026-05-03T13:11:25Z</time></trkpt><trkpt lat="44.81799031472112" lon="7.264805183173281"><ele>458.42857142857144</ele><time>2026-05-03T13:11:26Z</time></trkpt><trkpt lat="44.81799064841588" lon="7.264903241649535"><ele>458.14285714285717</ele><time>2026-05-03T13:11:27Z</time></trkpt><trkpt lat="44.817984349271136" lon="7.265000819534763"><ele>457.8571428571429</ele><time>2026-05-03T13:11:28Z</time></trkpt><trkpt lat="44.81797076960016" lon="7.265098228061037"><ele>457.57142857142856</ele><time>2026-05-03T13:11:29Z</time></trkpt><trkpt lat="44.81795762594367" lon="7.265191198192686"><ele>457.28571428571433</ele><time>2026-05-03T13:11:30Z</time></trkpt><trkpt lat="44.81794615925231" lon="7.265287333728345"><ele>457.00000000000006</ele><time>2026-05-03T13:11:31Z</time></trkpt><trkpt lat="44.817939125686216" lon="7.265382653708942"><ele>457.00000000000006</ele><time>2026-05-03T13:11:32Z</time></trkpt><trkpt lat="44.817937015584114" lon="7.265478647213237"><ele>457.0</ele><time>2026-05-03T13:11:33Z</time></trkpt><trkpt lat="44.81794423596772" lon="7.265576096359062"><ele>457.00000000000006</ele><time>2026-05-03T13:11:34Z</time></trkpt><trkpt lat="44.81795694845003" lon="7.2656717674969435"><ele>457.00000000000006</ele><time>2026-05-03T13:11:35Z</time></trkpt><trkpt lat="44.81796960772136" lon="7.26576636408038"><ele>457.0</ele><time>2026-05-03T13:11:36Z</time></trkpt><trkpt lat="44.817981863711886" lon="7.265860788979053"><ele>457.00000000000006</ele><time>2026-05-03T13:11:37Z</time></trkpt><trkpt lat="44.81799190497941" lon="7.265954415504688"><ele>457.00000000000006</ele><time>2026-05-03T13:11:38Z</time></trkpt><trkpt lat="44.817999425739444" lon="7.266046952284694"><ele>457.00000000000006</ele><time>2026-05-03T13:11:39Z</time></trkpt><trkpt lat="44.8180062030697" lon="7.266138667996731"><ele>457.0</ele><time>2026-05-03T13:11:40Z</time></trkpt><trkpt lat="44.81801325214912" lon="7.266230751762429"><ele>457.00000000000006</ele><time>2026-05-03T13:11:41Z</time></trkpt><trkpt lat="44.81801862666519" lon="7.266321828441676"><ele>457.00000000000006</ele><time>2026-05-03T13:11:42Z</time></trkpt><trkpt lat="44.81802369520261" lon="7.266413633515207"><ele>457.0</ele><time>2026-05-03T13:11:43Z</time></trkpt><trkpt lat="44.81803212307066" lon="7.266501784469647"><ele>457.00000000000006</ele><time>2026-05-03T13:11:44.001Z</time></trkpt><trkpt lat="44.818067029107844" lon="7.2666668249569195"><ele>457.00000000000006</ele><time>2026-05-03T13:11:46.001Z</time></trkpt><trkpt lat="44.81811100550302" lon="7.266822366809136"><ele>457.8</ele><time>2026-05-03T13:11:48.001Z</time></trkpt><trkpt lat="44.81815186202946" lon="7.266970770745174"><ele>458.6</ele><time>2026-05-03T13:11:50.001Z</time></trkpt><trkpt lat="44.81818326009942" lon="7.26712323388968"><ele>459.40000000000003</ele><time>2026-05-03T13:11:52.001Z</time></trkpt><trkpt lat="44.8181917452658" lon="7.267271131576429"><ele>460.20000000000005</ele><time>2026-05-03T13:11:54.001Z</time></trkpt><trkpt lat="44.81818427462906" lon="7.267406876792771"><ele>461.0</ele><time>2026-05-03T13:11:56.001Z</time></trkpt><trkpt lat="44.81817240100969" lon="7.267529026564884"><ele>461.16666666666663</ele><time>2026-05-03T13:11:58.001Z</time></trkpt><trkpt lat="44.818164434338094" lon="7.267650610110372"><ele>461.3333333333333</ele><time>2026-05-03T13:12:00.001Z</time></trkpt><trkpt lat="44.81815115488672" lon="7.267769118499091"><ele>461.5</ele><time>2026-05-03T13:12:02.001Z</time></trkpt><trkpt lat="44.818141252699064" lon="7.267886075512576"><ele>461.66666666666663</ele><time>2026-05-03T13:12:04.001Z</time></trkpt><trkpt lat="44.81813459545849" lon="7.267999003745785"><ele>461.8333333333333</ele><time>2026-05-03T13:12:06.001Z</time></trkpt><trkpt lat="44.8181300460667" lon="7.268104272382793"><ele>462.0</ele><time>2026-05-03T13:12:08.001Z</time></trkpt><trkpt lat="44.81810629590132" lon="7.268201897875692"><ele>462.3333333333333</ele><time>2026-05-03T13:12:10.001Z</time></trkpt><trkpt lat="44.81808500874371" lon="7.268297537699876"><ele>462.66666666666663</ele><time>2026-05-03T13:12:12.001Z</time></trkpt><trkpt lat="44.818054775591634" lon="7.26838697883997"><ele>463.0</ele><time>2026-05-03T13:12:14.001Z</time></trkpt><trkpt lat="44.8180215872111" lon="7.268490802612252"><ele>463.3333333333333</ele><time>2026-05-03T13:12:16.001Z</time></trkpt><trkpt lat="44.817979106683374" lon="7.268604479215401"><ele>463.66666666666663</ele><time>2026-05-03T13:12:18.001Z</time></trkpt><trkpt lat="44.81794762491333" lon="7.268730174758423"><ele>464.0</ele><time>2026-05-03T13:12:20.001Z</time></trkpt><trkpt lat="44.817912827171135" lon="7.26886732096866"><ele>464.3333333333333</ele><time>2026-05-03T13:12:22.001Z</time></trkpt><trkpt lat="44.81786915437728" lon="7.26902045429947"><ele>464.66666666666663</ele><time>2026-05-03T13:12:24.001Z</time></trkpt><trkpt lat="44.817826617373356" lon="7.269183048416591"><ele>465.0</ele><time>2026-05-03T13:12:26.001Z</time></trkpt><trkpt lat="44.817805737571305" lon="7.269269962988772"><ele>465.33333333333337</ele><time>2026-05-03T13:12:27.001Z</time></trkpt><trkpt lat="44.81778213949648" lon="7.2693558981254105"><ele>465.6666666666667</ele><time>2026-05-03T13:12:28.001Z</time></trkpt><trkpt lat="44.81775714151651" lon="7.269442598765145"><ele>466.0</ele><time>2026-05-03T13:12:29.001Z</time></trkpt><trkpt lat="44.81773502645632" lon="7.269530679502082"><ele>466.00000000000006</ele><time>2026-05-03T13:12:30.001Z</time></trkpt><trkpt lat="44.817712933934786" lon="7.269614244376723"><ele>466.0</ele><time>2026-05-03T13:12:31.001Z</time></trkpt><trkpt lat="44.817689023295166" lon="7.269698529681095"><ele>466.0</ele><time>2026-05-03T13:12:32.001Z</time></trkpt><trkpt lat="44.81766750734971" lon="7.269782614580112"><ele>466.0</ele><time>2026-05-03T13:12:33.001Z</time></trkpt><trkpt lat="44.81764691992192" lon="7.269867579091985"><ele>466.00000000000006</ele><time>2026-05-03T13:12:34Z</time></trkpt><trkpt lat="44.817600585462955" lon="7.2700294615564305"><ele>466.0</ele><time>2026-05-03T13:12:36Z</time></trkpt><trkpt lat="44.81755555652603" lon="7.270197339336083"><ele>464.57142857142856</ele><time>2026-05-03T13:12:38Z</time></trkpt><trkpt lat="44.81753152357051" lon="7.270285567718322"><ele>463.1428571428571</ele><time>2026-05-03T13:12:39Z</time></trkpt><trkpt lat="44.81750517476968" lon="7.2703739086509245"><ele>461.71428571428567</ele><time>2026-05-03T13:12:40Z</time></trkpt><trkpt lat="44.817477004499864" lon="7.270461971111967"><ele>460.2857142857143</ele><time>2026-05-03T13:12:41Z</time></trkpt><trkpt lat="44.81744564888795" lon="7.270549594663987"><ele>458.8571428571428</ele><time>2026-05-03T13:12:42Z</time></trkpt><trkpt lat="44.81741543946215" lon="7.270636962578054"><ele>457.4285714285714</ele><time>2026-05-03T13:12:43Z</time></trkpt><trkpt lat="44.81738698627285" lon="7.270725834117927"><ele>456.0</ele><time>2026-05-03T13:12:44Z</time></trkpt><trkpt lat="44.817356309829265" lon="7.270810880084749"><ele>456.0</ele><time>2026-05-03T13:12:45Z</time></trkpt><trkpt lat="44.81732358429674" lon="7.270893546845936"><ele>455.99999999999994</ele><time>2026-05-03T13:12:46Z</time></trkpt><trkpt lat="44.817292579376605" lon="7.27098056226537"><ele>456.0</ele><time>2026-05-03T13:12:47Z</time></trkpt><trkpt lat="44.81726047168866" lon="7.271068282006076"><ele>456.0</ele><time>2026-05-03T13:12:48Z</time></trkpt><trkpt lat="44.817229640615516" lon="7.271153718893503"><ele>455.99999999999994</ele><time>2026-05-03T13:12:49Z</time></trkpt><trkpt lat="44.81719809131112" lon="7.271239631314802"><ele>456.0</ele><time>2026-05-03T13:12:50Z</time></trkpt><trkpt lat="44.817166890470325" lon="7.271326459402126"><ele>456.0</ele><time>2026-05-03T13:12:51Z</time></trkpt><trkpt lat="44.817104827114505" lon="7.271497801068945"><ele>456.71428571428567</ele><time>2026-05-03T13:12:53Z</time></trkpt><trkpt lat="44.81706978883286" lon="7.2715838272484765"><ele>457.4285714285714</ele><time>2026-05-03T13:12:54Z</time></trkpt><trkpt lat="44.81703839912498" lon="7.271673634078413"><ele>458.1428571428571</ele><time>2026-05-03T13:12:55Z</time></trkpt><trkpt lat="44.81701291231854" lon="7.271764281672387"><ele>458.8571428571429</ele><time>2026-05-03T13:12:56Z</time></trkpt><trkpt lat="44.816985417044144" lon="7.271856737772595"><ele>459.5714285714286</ele><time>2026-05-03T13:12:57Z</time></trkpt><trkpt lat="44.81695942726424" lon="7.271949657480968"><ele>460.28571428571433</ele><time>2026-05-03T13:12:58Z</time></trkpt><trkpt lat="44.816932871735425" lon="7.272041563022738"><ele>461.0</ele><time>2026-05-03T13:12:59Z</time></trkpt><trkpt lat="44.81690448839584" lon="7.272131459085926"><ele>461.0</ele><time>2026-05-03T13:13:00Z</time></trkpt><trkpt lat="44.81687736305632" lon="7.272220338247607"><ele>461.00000000000006</ele><time>2026-05-03T13:13:01Z</time></trkpt><trkpt lat="44.81684853149376" lon="7.272305565455609"><ele>461.0</ele><time>2026-05-03T13:13:02Z</time></trkpt><trkpt lat="44.81682516128268" lon="7.27239839089642"><ele>461.0</ele><time>2026-05-03T13:13:03Z</time></trkpt><trkpt lat="44.8168031947357" lon="7.272489924996937"><ele>461.00000000000006</ele><time>2026-05-03T13:13:04Z</time></trkpt><trkpt lat="44.816790071118845" lon="7.272577195124541"><ele>461.0</ele><time>2026-05-03T13:13:05Z</time></trkpt><trkpt lat="44.81679342007467" lon="7.272669651168984"><ele>461.0</ele><time>2026-05-03T13:13:06Z</time></trkpt><trkpt lat="44.81680219056613" lon="7.272836105130288"><ele>461.8</ele><time>2026-05-03T13:13:08Z</time></trkpt><trkpt lat="44.81682001380774" lon="7.272997269902048"><ele>462.6</ele><time>2026-05-03T13:13:10Z</time></trkpt><trkpt lat="44.81683501463264" lon="7.2731511806318"><ele>463.4</ele><time>2026-05-03T13:13:12Z</time></trkpt><trkpt lat="44.8168403841086" lon="7.2733015103351475"><ele>464.2</ele><time>2026-05-03T13:13:14Z</time></trkpt><trkpt lat="44.816834650061374" lon="7.273448154545518"><ele>465.0</ele><time>2026-05-03T13:13:16Z</time></trkpt><trkpt lat="44.81681344971038" lon="7.273592347177806"><ele>463.8333333333333</ele><time>2026-05-03T13:13:18Z</time></trkpt><trkpt lat="44.816760620133095" lon="7.273727438969989"><ele>462.66666666666663</ele><time>2026-05-03T13:13:20Z</time></trkpt><trkpt lat="44.81669739067715" lon="7.27387615033534"><ele>461.5</ele><time>2026-05-03T13:13:22Z</time></trkpt><trkpt lat="44.816667028381126" lon="7.2739584164865345"><ele>460.3333333333333</ele><time>2026-05-03T13:13:23Z</time></trkpt><trkpt lat="44.81663437555093" lon="7.274043561279915"><ele>459.16666666666663</ele><time>2026-05-03T13:13:24Z</time></trkpt><trkpt lat="44.81660012237138" lon="7.27412967212023"><ele>458.0</ele><time>2026-05-03T13:13:25Z</time></trkpt><trkpt lat="44.81656488078671" lon="7.274219830621367"><ele>458.0</ele><time>2026-05-03T13:13:26Z</time></trkpt><trkpt lat="44.8165291022414" lon="7.274310373972849"><ele>458.0</ele><time>2026-05-03T13:13:27Z</time></trkpt><trkpt lat="44.81649527654463" lon="7.274401304377181"><ele>458.0</ele><time>2026-05-03T13:13:28Z</time></trkpt><trkpt lat="44.81646063030399" lon="7.274493854695919"><ele>458.0</ele><time>2026-05-03T13:13:29Z</time></trkpt><trkpt lat="44.81642634737181" lon="7.274583756705809"><ele>458.0</ele><time>2026-05-03T13:13:30Z</time></trkpt><trkpt lat="44.81639547742324" lon="7.274680831866303"><ele>458.0</ele><time>2026-05-03T13:13:31Z</time></trkpt><trkpt lat="44.81637385895617" lon="7.274782435064189"><ele>458.0</ele><time>2026-05-03T13:13:32Z</time></trkpt><trkpt lat="44.81634994982336" lon="7.274886005406542"><ele>458.3333333333333</ele><time>2026-05-03T13:13:33Z</time></trkpt><trkpt lat="44.816321047899706" lon="7.2749870226322"><ele>458.66666666666663</ele><time>2026-05-03T13:13:34Z</time></trkpt><trkpt lat="44.81629183415524" lon="7.2750881498422"><ele>459.0</ele><time>2026-05-03T13:13:35Z</time></trkpt><trkpt lat="44.81626528998737" lon="7.275188950319355"><ele>459.33333333333337</ele><time>2026-05-03T13:13:36Z</time></trkpt><trkpt lat="44.816241837048885" lon="7.275289095812982"><ele>459.6666666666667</ele><time>2026-05-03T13:13:37Z</time></trkpt><trkpt lat="44.81621826941667" lon="7.275390497301812"><ele>460.0</ele><time>2026-05-03T13:13:38Z</time></trkpt><trkpt lat="44.81619349932165" lon="7.275490987228548"><ele>459.99999999999994</ele><time>2026-05-03T13:13:39Z</time></trkpt><trkpt lat="44.81616608017999" lon="7.2755888075761375"><ele>460.0</ele><time>2026-05-03T13:13:40Z</time></trkpt><trkpt lat="44.816141060427015" lon="7.275685137938841"><ele>459.99999999999994</ele><time>2026-05-03T13:13:41Z</time></trkpt><trkpt lat="44.81611781269089" lon="7.275781949207639"><ele>459.99999999999994</ele><time>2026-05-03T13:13:42Z</time></trkpt><trkpt lat="44.81609585939054" lon="7.27587679239358"><ele>460.0</ele><time>2026-05-03T13:13:43Z</time></trkpt><trkpt lat="44.816074857644445" lon="7.275970273438632"><ele>459.99999999999994</ele><time>2026-05-03T13:13:44Z</time></trkpt><trkpt lat="44.81606339284452" lon="7.276064140437333"><ele>459.99999999999994</ele><time>2026-05-03T13:13:45Z</time></trkpt><trkpt lat="44.81607166691999" lon="7.276160758504558"><ele>460.0</ele><time>2026-05-03T13:13:46Z</time></trkpt><trkpt lat="44.81608464233243" lon="7.276256521743337"><ele>460.0</ele><time>2026-05-03T13:13:47.001Z</time></trkpt><trkpt lat="44.81610244123582" lon="7.27634429602842"><ele>460.0</ele><time>2026-05-03T13:13:48.001Z</time></trkpt><trkpt lat="44.816102212779725" lon="7.276515389993261"><ele>460.0</ele><time>2026-05-03T13:13:50.001Z</time></trkpt><trkpt lat="44.81606411876921" lon="7.276671461816726"><ele>460.0</ele><time>2026-05-03T13:13:52.001Z</time></trkpt><trkpt lat="44.81602600357774" lon="7.2768322713431965"><ele>458.5</ele><time>2026-05-03T13:13:54.001Z</time></trkpt><trkpt lat="44.815986577668646" lon="7.276989603136561"><ele>457.0</ele><time>2026-05-03T13:13:56.001Z</time></trkpt><trkpt lat="44.81594396218809" lon="7.2771472953764"><ele>455.5</ele><time>2026-05-03T13:13:58.001Z</time></trkpt><trkpt lat="44.81590768167541" lon="7.277308206242789"><ele>454.0</ele><time>2026-05-03T13:14:00.001Z</time></trkpt><trkpt lat="44.81587992615295" lon="7.277470698458363"><ele>454.0</ele><time>2026-05-03T13:14:02.001Z</time></trkpt><trkpt lat="44.81588600101221" lon="7.2776406718845426"><ele>454.0</ele><time>2026-05-03T13:14:04.001Z</time></trkpt><trkpt lat="44.81589995870686" lon="7.277804966635063"><ele>454.0</ele><time>2026-05-03T13:14:06.001Z</time></trkpt><trkpt lat="44.81589893585734" lon="7.27795351972817"><ele>454.0</ele><time>2026-05-03T13:14:08.001Z</time></trkpt><trkpt lat="44.815871098762244" lon="7.278088289524362"><ele>454.0</ele><time>2026-05-03T13:14:10.001Z</time></trkpt><trkpt lat="44.81584058346023" lon="7.278208021013769"><ele>454.6</ele><time>2026-05-03T13:14:12.001Z</time></trkpt><trkpt lat="44.81580638364846" lon="7.278324731175471"><ele>455.2</ele><time>2026-05-03T13:14:14.001Z</time></trkpt><trkpt lat="44.81577293005103" lon="7.278440645653972"><ele>455.80000000000007</ele><time>2026-05-03T13:14:16.001Z</time></trkpt><trkpt lat="44.815745935632954" lon="7.278565482321149"><ele>456.40000000000003</ele><time>2026-05-03T13:14:18.001Z</time></trkpt><trkpt lat="44.81570663513708" lon="7.2786818811423"><ele>457.0</ele><time>2026-05-03T13:14:20.001Z</time></trkpt><trkpt lat="44.815675601671614" lon="7.278806947310165"><ele>457.0</ele><time>2026-05-03T13:14:22.001Z</time></trkpt><trkpt lat="44.815636291881844" lon="7.278930387948229"><ele>457.00000000000006</ele><time>2026-05-03T13:14:24.001Z</time></trkpt><trkpt lat="44.81558484447589" lon="7.2790528426878485"><ele>457.00000000000006</ele><time>2026-05-03T13:14:26.001Z</time></trkpt><trkpt lat="44.81552986669748" lon="7.279180867041622"><ele>457.0</ele><time>2026-05-03T13:14:28.001Z</time></trkpt><trkpt lat="44.81547119620913" lon="7.2793231481051714"><ele>457.0</ele><time>2026-05-03T13:14:30.001Z</time></trkpt><trkpt lat="44.815408156485184" lon="7.279466501528334"><ele>458.0</ele><time>2026-05-03T13:14:32.001Z</time></trkpt><trkpt lat="44.81534868039728" lon="7.279620500365174"><ele>459.00000000000006</ele><time>2026-05-03T13:14:34.001Z</time></trkpt><trkpt lat="44.815280078156164" lon="7.27976662037013"><ele>460.00000000000006</ele><time>2026-05-03T13:14:36.001Z</time></trkpt><trkpt lat="44.815180522578245" lon="7.279871581469439"><ele>461.0</ele><time>2026-05-03T13:14:38.001Z</time></trkpt><trkpt lat="44.81513195682958" lon="7.279933688322748"><ele>462.0</ele><time>2026-05-03T13:14:39.001Z</time></trkpt><trkpt lat="44.815089049755166" lon="7.280002048774421"><ele>460.57142857142856</ele><time>2026-05-03T13:14:40Z</time></trkpt><trkpt lat="44.81505114717402" lon="7.280078330632683"><ele>459.1428571428571</ele><time>2026-05-03T13:14:41Z</time></trkpt><trkpt lat="44.815011190239424" lon="7.280147206153115"><ele>457.7142857142857</ele><time>2026-05-03T13:14:42Z</time></trkpt><trkpt lat="44.8149665690887" lon="7.280213974493903"><ele>456.2857142857143</ele><time>2026-05-03T13:14:43Z</time></trkpt><trkpt lat="44.81492529853483" lon="7.2802858114622815"><ele>454.85714285714283</ele><time>2026-05-03T13:14:44Z</time></trkpt><trkpt lat="44.814886093369495" lon="7.280361136535465"><ele>453.42857142857144</ele><time>2026-05-03T13:14:45Z</time></trkpt><trkpt lat="44.814848792612324" lon="7.2804362343372855"><ele>452.0</ele><time>2026-05-03T13:14:46Z</time></trkpt><trkpt lat="44.81480880782455" lon="7.280506667234554"><ele>451.99999999999994</ele><time>2026-05-03T13:14:47Z</time></trkpt><trkpt lat="44.81476971520694" lon="7.2805777693991045"><ele>452.0</ele><time>2026-05-03T13:14:48Z</time></trkpt><trkpt lat="44.81469139811179" lon="7.280713372011672"><ele>452.0</ele><time>2026-05-03T13:14:50Z</time></trkpt><trkpt lat="44.814649814720084" lon="7.280781517421469"><ele>452.0</ele><time>2026-05-03T13:14:51Z</time></trkpt><trkpt lat="44.8146062176322" lon="7.280851455228626"><ele>451.99999999999994</ele><time>2026-05-03T13:14:52Z</time></trkpt><trkpt lat="44.814558037461126" lon="7.280925157050679"><ele>452.0</ele><time>2026-05-03T13:14:53Z</time></trkpt><trkpt lat="44.814505950449814" lon="7.280999480407905"><ele>452.16666666666663</ele><time>2026-05-03T13:14:54Z</time></trkpt><trkpt lat="44.81445315430292" lon="7.281075171306601"><ele>452.3333333333333</ele><time>2026-05-03T13:14:55Z</time></trkpt><trkpt lat="44.81439847433857" lon="7.281152387796072"><ele>452.5</ele><time>2026-05-03T13:14:56Z</time></trkpt><trkpt lat="44.814343335034984" lon="7.281232580438657"><ele>452.66666666666663</ele><time>2026-05-03T13:14:57Z</time></trkpt><trkpt lat="44.81428964319196" lon="7.281315711307979"><ele>452.8333333333333</ele><time>2026-05-03T13:14:58Z</time></trkpt><trkpt lat="44.814238524074185" lon="7.281402735229542"><ele>453.0</ele><time>2026-05-03T13:14:59Z</time></trkpt><trkpt lat="44.814185609677374" lon="7.281485960372625"><ele>453.0</ele><time>2026-05-03T13:15:00Z</time></trkpt><trkpt lat="44.81412927485159" lon="7.28156328968995"><ele>453.0</ele><time>2026-05-03T13:15:01Z</time></trkpt><trkpt lat="44.814069475415295" lon="7.281637879223143"><ele>453.0</ele><time>2026-05-03T13:15:02Z</time></trkpt><trkpt lat="44.81401264736699" lon="7.281711989808416"><ele>453.0</ele><time>2026-05-03T13:15:03Z</time></trkpt><trkpt lat="44.81395822874422" lon="7.281786336724357"><ele>453.0</ele><time>2026-05-03T13:15:04Z</time></trkpt><trkpt lat="44.81390555694293" lon="7.281860701083554"><ele>453.0</ele><time>2026-05-03T13:15:05Z</time></trkpt><trkpt lat="44.81385596402963" lon="7.281938210783765"><ele>452.99999999999994</ele><time>2026-05-03T13:15:06Z</time></trkpt><trkpt lat="44.81380844907579" lon="7.282012792481011"><ele>453.0</ele><time>2026-05-03T13:15:07Z</time></trkpt><trkpt lat="44.81375741606702" lon="7.2820837713331175"><ele>452.99999999999994</ele><time>2026-05-03T13:15:08Z</time></trkpt><trkpt lat="44.81369896098491" lon="7.282144745889567"><ele>452.99999999999994</ele><time>2026-05-03T13:15:09Z</time></trkpt><trkpt lat="44.8136370394286" lon="7.282198631933538"><ele>453.0</ele><time>2026-05-03T13:15:10Z</time></trkpt><trkpt lat="44.81357045090032" lon="7.282249274707689"><ele>452.99999999999994</ele><time>2026-05-03T13:15:11Z</time></trkpt><trkpt lat="44.81350149062869" lon="7.282302848376186"><ele>452.99999999999994</ele><time>2026-05-03T13:15:12Z</time></trkpt><trkpt lat="44.81343259780676" lon="7.282348579426151"><ele>452.0</ele><time>2026-05-03T13:15:13Z</time></trkpt><trkpt lat="44.81335887428555" lon="7.282379179706125"><ele>451.0</ele><time>2026-05-03T13:15:14Z</time></trkpt><trkpt lat="44.81328442399223" lon="7.282397810364229"><ele>450.0</ele><time>2026-05-03T13:15:15Z</time></trkpt><trkpt lat="44.813208412324556" lon="7.282394607018876"><ele>449.0</ele><time>2026-05-03T13:15:16Z</time></trkpt><trkpt lat="44.81313418660889" lon="7.2823980052466935"><ele>448.0</ele><time>2026-05-03T13:15:17Z</time></trkpt><trkpt lat="44.8130669459581" lon="7.2824396797301425"><ele>447.0</ele><time>2026-05-03T13:15:18Z</time></trkpt><trkpt lat="44.81300865391981" lon="7.282507647914746"><ele>446.99999999999994</ele><time>2026-05-03T13:15:19Z</time></trkpt><trkpt lat="44.81295684735472" lon="7.282585237419289"><ele>447.0</ele><time>2026-05-03T13:15:20Z</time></trkpt><trkpt lat="44.812904636038525" lon="7.282660261550267"><ele>447.0</ele><time>2026-05-03T13:15:21Z</time></trkpt><trkpt lat="44.81285661567162" lon="7.282734312804832"><ele>447.0</ele><time>2026-05-03T13:15:22Z</time></trkpt><trkpt lat="44.812808773631936" lon="7.282812126088445"><ele>447.0</ele><time>2026-05-03T13:15:23Z</time></trkpt><trkpt lat="44.81276198061053" lon="7.28288846835709"><ele>446.99999999999994</ele><time>2026-05-03T13:15:24Z</time></trkpt><trkpt lat="44.81271448687646" lon="7.282964113480046"><ele>447.0</ele><time>2026-05-03T13:15:25Z</time></trkpt><trkpt lat="44.81267191259703" lon="7.283040982163265"><ele>446.6666666666667</ele><time>2026-05-03T13:15:26Z</time></trkpt><trkpt lat="44.81263243905918" lon="7.2831207387199175"><ele>446.33333333333337</ele><time>2026-05-03T13:15:27Z</time></trkpt><trkpt lat="44.81259964217273" lon="7.283205742296154"><ele>446.0</ele><time>2026-05-03T13:15:28Z</time></trkpt><trkpt lat="44.81257150003114" lon="7.283286827638085"><ele>445.6666666666667</ele><time>2026-05-03T13:15:29Z</time></trkpt><trkpt lat="44.81253990677976" lon="7.283368320393786"><ele>445.33333333333337</ele><time>2026-05-03T13:15:30Z</time></trkpt><trkpt lat="44.81250758929353" lon="7.283453042258284"><ele>445.0</ele><time>2026-05-03T13:15:31Z</time></trkpt><trkpt lat="44.812459976130896" lon="7.283622427002129"><ele>445.0</ele><time>2026-05-03T13:15:33Z</time></trkpt><trkpt lat="44.81243875973772" lon="7.283709660593355"><ele>445.0</ele><time>2026-05-03T13:15:34Z</time></trkpt><trkpt lat="44.81241217595062" lon="7.283793373806177"><ele>445.0</ele><time>2026-05-03T13:15:35Z</time></trkpt><trkpt lat="44.812359579297926" lon="7.2839427587878225"><ele>445.0</ele><time>2026-05-03T13:15:37Z</time></trkpt><trkpt lat="44.81232325067985" lon="7.28408545056717"><ele>445.0</ele><time>2026-05-03T13:15:39Z</time></trkpt><trkpt lat="44.81229010048544" lon="7.284250525665894"><ele>446.00000000000006</ele><time>2026-05-03T13:15:41Z</time></trkpt><trkpt lat="44.8122492440696" lon="7.284421525091504"><ele>447.0</ele><time>2026-05-03T13:15:43Z</time></trkpt><trkpt lat="44.81222712661796" lon="7.284513600380143"><ele>448.0</ele><time>2026-05-03T13:15:44Z</time></trkpt><trkpt lat="44.81220332548155" lon="7.284609901685006"><ele>449.0</ele><time>2026-05-03T13:15:45Z</time></trkpt><trkpt lat="44.812176289755605" lon="7.284708613507972"><ele>450.00000000000006</ele><time>2026-05-03T13:15:46Z</time></trkpt><trkpt lat="44.812147430596255" lon="7.284800306196271"><ele>451.0</ele><time>2026-05-03T13:15:47Z</time></trkpt><trkpt lat="44.812119014163834" lon="7.284883621648055"><ele>451.50000000000006</ele><time>2026-05-03T13:15:48Z</time></trkpt><trkpt lat="44.812096963527196" lon="7.2849685544499065"><ele>452.0</ele><time>2026-05-03T13:15:49Z</time></trkpt><trkpt lat="44.81206274252328" lon="7.285056681231704"><ele>452.5</ele><time>2026-05-03T13:15:50Z</time></trkpt><trkpt lat="44.812018286092915" lon="7.285119753511043"><ele>453.0</ele><time>2026-05-03T13:15:51Z</time></trkpt><trkpt lat="44.81195283232765" lon="7.285158708529262"><ele>453.50000000000006</ele><time>2026-05-03T13:15:52Z</time></trkpt><trkpt lat="44.811876623052335" lon="7.285172460642228"><ele>454.0</ele><time>2026-05-03T13:15:53Z</time></trkpt><trkpt lat="44.81177937216306" lon="7.285267269517838"><ele>451.5714285714286</ele><time>2026-05-03T13:15:55.001Z</time></trkpt><trkpt lat="44.81175587556202" lon="7.285355769094759"><ele>449.1428571428572</ele><time>2026-05-03T13:15:56.001Z</time></trkpt><trkpt lat="44.8117394231786" lon="7.285448691909191"><ele>446.7142857142857</ele><time>2026-05-03T13:15:57.001Z</time></trkpt><trkpt lat="44.8117338304382" lon="7.285539211416427"><ele>444.28571428571433</ele><time>2026-05-03T13:15:58.001Z</time></trkpt><trkpt lat="44.81171659830586" lon="7.2856381807119055"><ele>441.8571428571429</ele><time>2026-05-03T13:15:59.001Z</time></trkpt><trkpt lat="44.81169982018143" lon="7.285736440063351"><ele>439.42857142857144</ele><time>2026-05-03T13:16:00.001Z</time></trkpt><trkpt lat="44.81169162174126" lon="7.285838296867018"><ele>437.0</ele><time>2026-05-03T13:16:01.001Z</time></trkpt><trkpt lat="44.81168590107439" lon="7.285944688528722"><ele>436.8333333333333</ele><time>2026-05-03T13:16:02.001Z</time></trkpt><trkpt lat="44.81167955970235" lon="7.28605038434619"><ele>436.66666666666663</ele><time>2026-05-03T13:16:03.001Z</time></trkpt><trkpt lat="44.81167054205471" lon="7.286154611548088"><ele>436.5</ele><time>2026-05-03T13:16:04.001Z</time></trkpt><trkpt lat="44.81165968850711" lon="7.2862564930551"><ele>436.33333333333337</ele><time>2026-05-03T13:16:05.001Z</time></trkpt><trkpt lat="44.81166045878145" lon="7.286362220190773"><ele>436.1666666666667</ele><time>2026-05-03T13:16:06.001Z</time></trkpt><trkpt lat="44.81165768625709" lon="7.286470567471637"><ele>436.0</ele><time>2026-05-03T13:16:07.001Z</time></trkpt><trkpt lat="44.81164886232899" lon="7.286578279719625"><ele>436.0</ele><time>2026-05-03T13:16:08.001Z</time></trkpt><trkpt lat="44.81164198839623" lon="7.286684042935624"><ele>436.0</ele><time>2026-05-03T13:16:09.001Z</time></trkpt><trkpt lat="44.81163495088771" lon="7.2867876606535456"><ele>436.0</ele><time>2026-05-03T13:16:10.001Z</time></trkpt><trkpt lat="44.811620871718496" lon="7.2868925548196275"><ele>436.0</ele><time>2026-05-03T13:16:11.001Z</time></trkpt><trkpt lat="44.81159558609015" lon="7.286992687348368"><ele>436.0</ele><time>2026-05-03T13:16:12.001Z</time></trkpt><trkpt lat="44.81156593448508" lon="7.287087370102469"><ele>436.0</ele><time>2026-05-03T13:16:13.001Z</time></trkpt><trkpt lat="44.811537906284364" lon="7.28718326733735"><ele>436.0</ele><time>2026-05-03T13:16:14.001Z</time></trkpt><trkpt lat="44.811509592776474" lon="7.287285068723001"><ele>437.1666666666667</ele><time>2026-05-03T13:16:15.001Z</time></trkpt><trkpt lat="44.811481902146994" lon="7.287387582391014"><ele>438.33333333333337</ele><time>2026-05-03T13:16:16.001Z</time></trkpt><trkpt lat="44.81145879216621" lon="7.287491228604114"><ele>439.5</ele><time>2026-05-03T13:16:17.001Z</time></trkpt><trkpt lat="44.81144921128675" lon="7.287603579607236"><ele>440.66666666666663</ele><time>2026-05-03T13:16:18.001Z</time></trkpt><trkpt lat="44.811447674950855" lon="7.287715260312637"><ele>441.8333333333333</ele><time>2026-05-03T13:16:19.001Z</time></trkpt><trkpt lat="44.81144687094307" lon="7.287825133835161"><ele>443.0</ele><time>2026-05-03T13:16:20.001Z</time></trkpt><trkpt lat="44.811448539483926" lon="7.2879376134877045"><ele>442.99999999999994</ele><time>2026-05-03T13:16:21.001Z</time></trkpt><trkpt lat="44.81145009338174" lon="7.288053588114467"><ele>443.0</ele><time>2026-05-03T13:16:22.001Z</time></trkpt><trkpt lat="44.81144765963389" lon="7.288171033876643"><ele>443.0</ele><time>2026-05-03T13:16:23.001Z</time></trkpt><trkpt lat="44.811440094229816" lon="7.28829304048296"><ele>443.0</ele><time>2026-05-03T13:16:24.001Z</time></trkpt><trkpt lat="44.81143348069405" lon="7.288395174610846"><ele>442.99999999999994</ele><time>2026-05-03T13:16:25.001Z</time></trkpt><trkpt lat="44.81141729004061" lon="7.288559618872985"><ele>443.0</ele><time>2026-05-03T13:16:27.001Z</time></trkpt><trkpt lat="44.81140206328073" lon="7.288722074275858"><ele>443.16666666666663</ele><time>2026-05-03T13:16:29.001Z</time></trkpt><trkpt lat="44.81143142635143" lon="7.288887990773426"><ele>443.3333333333333</ele><time>2026-05-03T13:16:31.001Z</time></trkpt><trkpt lat="44.81147891392345" lon="7.288958787494678"><ele>443.5</ele><time>2026-05-03T13:16:32.001Z</time></trkpt><trkpt lat="44.81153149022762" lon="7.28901809691641"><ele>443.66666666666663</ele><time>2026-05-03T13:16:33.001Z</time></trkpt><trkpt lat="44.8115790002414" lon="7.289082843875842"><ele>443.8333333333333</ele><time>2026-05-03T13:16:34.001Z</time></trkpt><trkpt lat="44.81162239640618" lon="7.289151714790598"><ele>444.0</ele><time>2026-05-03T13:16:35.001Z</time></trkpt><trkpt lat="44.81170049317371" lon="7.289294538221539"><ele>444.6666666666667</ele><time>2026-05-03T13:16:37.001Z</time></trkpt><trkpt lat="44.81174105762587" lon="7.2893675687413975"><ele>445.33333333333337</ele><time>2026-05-03T13:16:38.001Z</time></trkpt><trkpt lat="44.81178654141651" lon="7.289429623072102"><ele>446.0</ele><time>2026-05-03T13:16:39.001Z</time></trkpt><trkpt lat="44.811835430379574" lon="7.289486020898017"><ele>446.6666666666667</ele><time>2026-05-03T13:16:40.001Z</time></trkpt><trkpt lat="44.81192783893365" lon="7.289579941364093"><ele>447.33333333333337</ele><time>2026-05-03T13:16:42.001Z</time></trkpt><trkpt lat="44.81202033239322" lon="7.289641210580612"><ele>448.0</ele><time>2026-05-03T13:16:44.001Z</time></trkpt><trkpt lat="44.81210587632043" lon="7.28968507946452"><ele>448.0</ele><time>2026-05-03T13:16:45.999Z</time></trkpt><trkpt lat="44.81219843435151" lon="7.289731438126165"><ele>447.99999999999994</ele><time>2026-05-03T13:16:47.999Z</time></trkpt><trkpt lat="44.81229284664262" lon="7.289784813200255"><ele>447.99999999999994</ele><time>2026-05-03T13:16:49.999Z</time></trkpt><trkpt lat="44.81238682974308" lon="7.289828109433578"><ele>448.0</ele><time>2026-05-03T13:16:51.999Z</time></trkpt><trkpt lat="44.812482327581094" lon="7.289887346590648"><ele>448.0</ele><time>2026-05-03T13:16:53.999Z</time></trkpt><trkpt lat="44.81257311139285" lon="7.289940493035358"><ele>446.42857142857144</ele><time>2026-05-03T13:16:55.999Z</time></trkpt><trkpt lat="44.81265823317526" lon="7.289966303608451"><ele>444.8571428571429</ele><time>2026-05-03T13:16:57.999Z</time></trkpt><trkpt lat="44.812729631576154" lon="7.289955148627899"><ele>443.2857142857143</ele><time>2026-05-03T13:17:00Z</time></trkpt><trkpt lat="44.81279401052162" lon="7.289944720526248"><ele>441.7142857142857</ele><time>2026-05-03T13:17:02Z</time></trkpt><trkpt lat="44.812881130256315" lon="7.289951184829338"><ele>440.14285714285717</ele><time>2026-05-03T13:17:05Z</time></trkpt><trkpt lat="44.812945654455845" lon="7.2899651169728825"><ele>438.57142857142856</ele><time>2026-05-03T13:17:07Z</time></trkpt><trkpt lat="44.81301399030407" lon="7.2899498843836135"><ele>437.0</ele><time>2026-05-03T13:17:09Z</time></trkpt><trkpt lat="44.81308840917803" lon="7.289924557779644"><ele>436.99999999999994</ele><time>2026-05-03T13:17:11Z</time></trkpt><trkpt lat="44.81316644859903" lon="7.289908488122464"><ele>437.0</ele><time>2026-05-03T13:17:13Z</time></trkpt><trkpt lat="44.81324004862403" lon="7.289887155471284"><ele>437.0</ele><time>2026-05-03T13:17:15Z</time></trkpt><trkpt lat="44.81330887615777" lon="7.289852014377117"><ele>437.0</ele><time>2026-05-03T13:17:17Z</time></trkpt><trkpt lat="44.81338523076778" lon="7.289812734386314"><ele>436.99999999999994</ele><time>2026-05-03T13:17:19Z</time></trkpt><trkpt lat="44.813473970947" lon="7.289827283903849"><ele>437.0</ele><time>2026-05-03T13:17:21Z</time></trkpt><trkpt lat="44.81355759973459" lon="7.289898104728475"><ele>437.3333333333333</ele><time>2026-05-03T13:17:23Z</time></trkpt><trkpt lat="44.81363665858117" lon="7.289955930010949"><ele>437.66666666666663</ele><time>2026-05-03T13:17:25Z</time></trkpt><trkpt lat="44.81371178040526" lon="7.290006340968295"><ele>438.0</ele><time>2026-05-03T13:17:27Z</time></trkpt><trkpt lat="44.813777269455834" lon="7.290041537370373"><ele>438.33333333333337</ele><time>2026-05-03T13:17:29Z</time></trkpt><trkpt lat="44.81385831143989" lon="7.29009309170549"><ele>438.6666666666667</ele><time>2026-05-03T13:17:31Z</time></trkpt><trkpt lat="44.81395940464128" lon="7.290143402850701"><ele>439.0</ele><time>2026-05-03T13:17:33Z</time></trkpt><trkpt lat="44.81402267935506" lon="7.290191199228647"><ele>439.00000000000006</ele><time>2026-05-03T13:17:34Z</time></trkpt><trkpt lat="44.81409390777261" lon="7.290228869195812"><ele>439.0</ele><time>2026-05-03T13:17:35Z</time></trkpt><trkpt lat="44.81416101296123" lon="7.29027026162053"><ele>439.0</ele><time>2026-05-03T13:17:36Z</time></trkpt><trkpt lat="44.81423020973435" lon="7.290314339032795"><ele>439.0</ele><time>2026-05-03T13:17:37Z</time></trkpt><trkpt lat="44.81430217178186" lon="7.290352764174113"><ele>439.00000000000006</ele><time>2026-05-03T13:17:38Z</time></trkpt><trkpt lat="44.81437456937708" lon="7.290393770757589"><ele>439.0</ele><time>2026-05-03T13:17:39Z</time></trkpt><trkpt lat="44.81444925503504" lon="7.290432247628168"><ele>439.83333333333337</ele><time>2026-05-03T13:17:40Z</time></trkpt><trkpt lat="44.81452331824993" lon="7.290470734780389"><ele>440.6666666666667</ele><time>2026-05-03T13:17:41Z</time></trkpt><trkpt lat="44.814596170072235" lon="7.290514045757007"><ele>441.5</ele><time>2026-05-03T13:17:42Z</time></trkpt><trkpt lat="44.81466897215812" lon="7.290555210395658"><ele>442.33333333333337</ele><time>2026-05-03T13:17:43Z</time></trkpt><trkpt lat="44.81474309328201" lon="7.290593349162182"><ele>443.1666666666667</ele><time>2026-05-03T13:17:44Z</time></trkpt><trkpt lat="44.8148167254971" lon="7.290624339545155"><ele>444.0</ele><time>2026-05-03T13:17:45Z</time></trkpt><trkpt lat="44.814891007156206" lon="7.290652547369025"><ele>442.57142857142856</ele><time>2026-05-03T13:17:46Z</time></trkpt><trkpt lat="44.81496369894762" lon="7.290679583295438"><ele>441.14285714285717</ele><time>2026-05-03T13:17:47Z</time></trkpt><trkpt lat="44.81503373552664" lon="7.290703590116502"><ele>439.7142857142857</ele><time>2026-05-03T13:17:48Z</time></trkpt><trkpt lat="44.815109050698894" lon="7.290721879965091"><ele>438.2857142857143</ele><time>2026-05-03T13:17:49Z</time></trkpt><trkpt lat="44.815182623807765" lon="7.290743051317492"><ele>436.8571428571429</ele><time>2026-05-03T13:17:50Z</time></trkpt><trkpt lat="44.815256047593685" lon="7.290763958807899"><ele>435.42857142857144</ele><time>2026-05-03T13:17:51Z</time></trkpt><trkpt lat="44.81532928995485" lon="7.290787826787468"><ele>434.0</ele><time>2026-05-03T13:17:52Z</time></trkpt><trkpt lat="44.815404248801634" lon="7.290808045612089"><ele>433.99999999999994</ele><time>2026-05-03T13:17:53Z</time></trkpt><trkpt lat="44.81547710220547" lon="7.2908373921965435"><ele>434.0</ele><time>2026-05-03T13:17:54Z</time></trkpt><trkpt lat="44.815549389864195" lon="7.290875201367205"><ele>434.0</ele><time>2026-05-03T13:17:55Z</time></trkpt><trkpt lat="44.81561858978028" lon="7.290920814825255"><ele>434.0</ele><time>2026-05-03T13:17:56Z</time></trkpt><trkpt lat="44.81568294715297" lon="7.290979461476465"><ele>433.99999999999994</ele><time>2026-05-03T13:17:57Z</time></trkpt><trkpt lat="44.81574545382025" lon="7.2910472640699515"><ele>434.0</ele><time>2026-05-03T13:17:58Z</time></trkpt><trkpt lat="44.815805949851686" lon="7.2911195108600095"><ele>433.99999999999994</ele><time>2026-05-03T13:17:59Z</time></trkpt><trkpt lat="44.81586850652052" lon="7.2911916365435285"><ele>434.0</ele><time>2026-05-03T13:18:00Z</time></trkpt><trkpt lat="44.815935193415584" lon="7.291254904311097"><ele>434.0</ele><time>2026-05-03T13:18:01.001Z</time></trkpt><trkpt lat="44.81600556098698" lon="7.291318979954222"><ele>434.0</ele><time>2026-05-03T13:18:02.001Z</time></trkpt><trkpt lat="44.81607673548885" lon="7.291388449100628"><ele>433.99999999999994</ele><time>2026-05-03T13:18:03.001Z</time></trkpt><trkpt lat="44.81614675317239" lon="7.291457677196666"><ele>434.0</ele><time>2026-05-03T13:18:04.001Z</time></trkpt><trkpt lat="44.81620860413427" lon="7.291538495068178"><ele>432.66666666666663</ele><time>2026-05-03T13:18:05.001Z</time></trkpt><trkpt lat="44.81627296447122" lon="7.291626251996525"><ele>431.3333333333333</ele><time>2026-05-03T13:18:06.001Z</time></trkpt><trkpt lat="44.816331170665016" lon="7.291703033135098"><ele>430.0</ele><time>2026-05-03T13:18:07.001Z</time></trkpt><trkpt lat="44.81638121090921" lon="7.29176809821237"><ele>428.66666666666663</ele><time>2026-05-03T13:18:08.001Z</time></trkpt><trkpt lat="44.81644758581316" lon="7.2918981523074"><ele>427.3333333333333</ele><time>2026-05-03T13:18:10.001Z</time></trkpt><trkpt lat="44.816444094827496" lon="7.292015739293325"><ele>426.0</ele><time>2026-05-03T13:18:12.001Z</time></trkpt><trkpt lat="44.81636504802956" lon="7.292114186463838"><ele>426.0</ele><time>2026-05-03T13:18:14.001Z</time></trkpt><trkpt lat="44.81626961104518" lon="7.2922151508467525"><ele>426.0</ele><time>2026-05-03T13:18:16.001Z</time></trkpt><trkpt lat="44.816181813313534" lon="7.292341751624715"><ele>426.0</ele><time>2026-05-03T13:18:18.001Z</time></trkpt><trkpt lat="44.81613218706617" lon="7.292402150349457"><ele>426.0</ele><time>2026-05-03T13:18:19.001Z</time></trkpt><trkpt lat="44.816078154942645" lon="7.292453227335241"><ele>426.0</ele><time>2026-05-03T13:18:20.001Z</time></trkpt><trkpt lat="44.816036110216984" lon="7.292523341736818"><ele>426.0</ele><time>2026-05-03T13:18:21.001Z</time></trkpt><trkpt lat="44.81602908176362" lon="7.292620174119703"><ele>424.85714285714283</ele><time>2026-05-03T13:18:22.001Z</time></trkpt><trkpt lat="44.81606096130508" lon="7.2927036530657015"><ele>423.7142857142857</ele><time>2026-05-03T13:18:23.001Z</time></trkpt><trkpt lat="44.81612018268069" lon="7.292762122939566"><ele>422.57142857142856</ele><time>2026-05-03T13:18:24.001Z</time></trkpt><trkpt lat="44.81617786545202" lon="7.292817690269385"><ele>421.42857142857144</ele><time>2026-05-03T13:18:25.001Z</time></trkpt><trkpt lat="44.8162289488293" lon="7.292887579296858"><ele>420.2857142857143</ele><time>2026-05-03T13:18:26.001Z</time></trkpt><trkpt lat="44.81628136614769" lon="7.292963805723458"><ele>419.1428571428571</ele><time>2026-05-03T13:18:27.001Z</time></trkpt><trkpt lat="44.81633832005042" lon="7.293041743215739"><ele>418.0</ele><time>2026-05-03T13:18:28.001Z</time></trkpt><trkpt lat="44.81639828885494" lon="7.293122623972297"><ele>417.2</ele><time>2026-05-03T13:18:29.001Z</time></trkpt><trkpt lat="44.81645854353222" lon="7.293208856901154"><ele>416.4</ele><time>2026-05-03T13:18:30.001Z</time></trkpt><trkpt lat="44.81652272930359" lon="7.293294120656169"><ele>415.59999999999997</ele><time>2026-05-03T13:18:31.001Z</time></trkpt><trkpt lat="44.81658951498585" lon="7.2933849324458615"><ele>414.79999999999995</ele><time>2026-05-03T13:18:32.001Z</time></trkpt><trkpt lat="44.81665797998123" lon="7.293476471269441"><ele>414.0</ele><time>2026-05-03T13:18:33.001Z</time></trkpt><trkpt lat="44.81673004919972" lon="7.293567841634926"><ele>414.0</ele><time>2026-05-03T13:18:34.001Z</time></trkpt><trkpt lat="44.81680296336307" lon="7.293664480548639"><ele>414.0</ele><time>2026-05-03T13:18:35.001Z</time></trkpt><trkpt lat="44.81687572575013" lon="7.293763405033938"><ele>414.0</ele><time>2026-05-03T13:18:36.001Z</time></trkpt><trkpt lat="44.816949404484696" lon="7.293864173743514"><ele>414.0</ele><time>2026-05-03T13:18:37.001Z</time></trkpt><trkpt lat="44.81701952358277" lon="7.293967854721026"><ele>414.0</ele><time>2026-05-03T13:18:38.001Z</time></trkpt><trkpt lat="44.817085401050086" lon="7.2940719760369115"><ele>413.0</ele><time>2026-05-03T13:18:39.001Z</time></trkpt><trkpt lat="44.81714652036012" lon="7.294175137094022"><ele>412.0</ele><time>2026-05-03T13:18:40.001Z</time></trkpt><trkpt lat="44.81720750255085" lon="7.294280147802148"><ele>411.0</ele><time>2026-05-03T13:18:41.001Z</time></trkpt><trkpt lat="44.817262933937364" lon="7.2943842258075335"><ele>410.0</ele><time>2026-05-03T13:18:42.001Z</time></trkpt><trkpt lat="44.81731167891714" lon="7.294493244755152"><ele>409.0</ele><time>2026-05-03T13:18:43.001Z</time></trkpt><trkpt lat="44.817346533057574" lon="7.294602795656008"><ele>409.0</ele><time>2026-05-03T13:18:44.001Z</time></trkpt><trkpt lat="44.8173704095613" lon="7.294698687292554"><ele>409.0</ele><time>2026-05-03T13:18:45.001Z</time></trkpt><trkpt lat="44.81740605163188" lon="7.294852385483163"><ele>409.0</ele><time>2026-05-03T13:18:47.001Z</time></trkpt><trkpt lat="44.8174661974237" lon="7.294969594926785"><ele>409.0</ele><time>2026-05-03T13:18:49.001Z</time></trkpt><trkpt lat="44.81757803546126" lon="7.2949928479501125"><ele>409.0</ele><time>2026-05-03T13:18:51.001Z</time></trkpt><trkpt lat="44.817683235475464" lon="7.294927404395294"><ele>409.25</ele><time>2026-05-03T13:18:52.999Z</time></trkpt><trkpt lat="44.817788696089735" lon="7.294871684997536"><ele>409.5</ele><time>2026-05-03T13:18:54.999Z</time></trkpt><trkpt lat="44.81789392302213" lon="7.294817812059143"><ele>409.75</ele><time>2026-05-03T13:18:56.999Z</time></trkpt><trkpt lat="44.8180047845204" lon="7.294769001421987"><ele>410.0</ele><time>2026-05-03T13:18:58.999Z</time></trkpt><trkpt lat="44.818116854784" lon="7.294728638061371"><ele>410.0</ele><time>2026-05-03T13:19:00.999Z</time></trkpt><trkpt lat="44.81823250660561" lon="7.294690144297311"><ele>410.0</ele><time>2026-05-03T13:19:02.999Z</time></trkpt><trkpt lat="44.81834116136474" lon="7.294653036980139"><ele>410.0</ele><time>2026-05-03T13:19:04.999Z</time></trkpt><trkpt lat="44.81845563253231" lon="7.294623068925909"><ele>410.0</ele><time>2026-05-03T13:19:06.999Z</time></trkpt><trkpt lat="44.81856966863817" lon="7.294598936429631"><ele>410.2</ele><time>2026-05-03T13:19:08.999Z</time></trkpt><trkpt lat="44.81868477021087" lon="7.294572324154288"><ele>410.4</ele><time>2026-05-03T13:19:11Z</time></trkpt><trkpt lat="44.81880424821563" lon="7.294553247729593"><ele>410.6</ele><time>2026-05-03T13:19:13Z</time></trkpt><trkpt lat="44.818928294064854" lon="7.294546222535868"><ele>410.8</ele><time>2026-05-03T13:19:15Z</time></trkpt><trkpt lat="44.81899274185654" lon="7.294542879945325"><ele>411.0</ele><time>2026-05-03T13:19:16Z</time></trkpt><trkpt lat="44.819057518132425" lon="7.294541733365114"><ele>411.0</ele><time>2026-05-03T13:19:17Z</time></trkpt><trkpt lat="44.81912381257104" lon="7.294543454401207"><ele>411.0</ele><time>2026-05-03T13:19:18Z</time></trkpt><trkpt lat="44.81919170413929" lon="7.2945499697573455"><ele>411.0</ele><time>2026-05-03T13:19:19Z</time></trkpt><trkpt lat="44.81926027504422" lon="7.2945699905410395"><ele>411.0</ele><time>2026-05-03T13:19:20Z</time></trkpt><trkpt lat="44.81932690733542" lon="7.294595825319453"><ele>411.0</ele><time>2026-05-03T13:19:21Z</time></trkpt><trkpt lat="44.81939091242125" lon="7.294636057630765"><ele>411.0</ele><time>2026-05-03T13:19:22Z</time></trkpt><trkpt lat="44.819452827049474" lon="7.294686027483058"><ele>411.0</ele><time>2026-05-03T13:19:23Z</time></trkpt><trkpt lat="44.819512373990875" lon="7.294739076867833"><ele>410.7142857142857</ele><time>2026-05-03T13:19:24Z</time></trkpt><trkpt lat="44.81957373564828" lon="7.294796077200417"><ele>410.42857142857144</ele><time>2026-05-03T13:19:25Z</time></trkpt><trkpt lat="44.81963118650814" lon="7.294857487740118"><ele>410.1428571428571</ele><time>2026-05-03T13:19:26Z</time></trkpt><trkpt lat="44.819687373162886" lon="7.2949203369871585"><ele>409.8571428571429</ele><time>2026-05-03T13:19:27Z</time></trkpt><trkpt lat="44.81973918346885" lon="7.294994407662817"><ele>409.5714285714286</ele><time>2026-05-03T13:19:28Z</time></trkpt><trkpt lat="44.81979157041612" lon="7.29507005582603"><ele>409.2857142857143</ele><time>2026-05-03T13:19:29Z</time></trkpt><trkpt lat="44.81983889454087" lon="7.295149807366846"><ele>409.0</ele><time>2026-05-03T13:19:30Z</time></trkpt><trkpt lat="44.8198908688845" lon="7.295234800861072"><ele>409.00000000000006</ele><time>2026-05-03T13:19:31Z</time></trkpt><trkpt lat="44.819941006907534" lon="7.295324617167196"><ele>409.0</ele><time>2026-05-03T13:19:32Z</time></trkpt><trkpt lat="44.81999221942407" lon="7.295418005121183"><ele>409.0</ele><time>2026-05-03T13:19:33Z</time></trkpt><trkpt lat="44.820043911486934" lon="7.295509242965731"><ele>409.0</ele><time>2026-05-03T13:19:34Z</time></trkpt><trkpt lat="44.820097537427884" lon="7.2956007521994355"><ele>409.00000000000006</ele><time>2026-05-03T13:19:35Z</time></trkpt><trkpt lat="44.82014831174587" lon="7.29569717232384"><ele>409.0</ele><time>2026-05-03T13:19:36Z</time></trkpt><trkpt lat="44.8201932687644" lon="7.295800914029489"><ele>408.33333333333337</ele><time>2026-05-03T13:19:37Z</time></trkpt><trkpt lat="44.82023092956288" lon="7.295909804042704"><ele>407.6666666666667</ele><time>2026-05-03T13:19:38Z</time></trkpt><trkpt lat="44.820279584392004" lon="7.296005893761909"><ele>407.0</ele><time>2026-05-03T13:19:39Z</time></trkpt><trkpt lat="44.82032823661672" lon="7.2960904584099"><ele>406.33333333333337</ele><time>2026-05-03T13:19:40Z</time></trkpt><trkpt lat="44.82037587612419" lon="7.296166854127686"><ele>405.6666666666667</ele><time>2026-05-03T13:19:41Z</time></trkpt><trkpt lat="44.82043788460445" lon="7.29625999450266"><ele>405.0</ele><time>2026-05-03T13:19:43Z</time></trkpt><trkpt lat="44.8204960268522" lon="7.2963282151966675"><ele>405.0</ele><time>2026-05-03T13:19:45Z</time></trkpt><trkpt lat="44.82055758954227" lon="7.29636948373762"><ele>405.0</ele><time>2026-05-03T13:19:47Z</time></trkpt><trkpt lat="44.820625871214396" lon="7.296441430301016"><ele>405.0</ele><time>2026-05-03T13:19:49Z</time></trkpt><trkpt lat="44.820693427844894" lon="7.296533293047052"><ele>405.0</ele><time>2026-05-03T13:19:51Z</time></trkpt><trkpt lat="44.82076448321675" lon="7.296641157446581"><ele>405.0</ele><time>2026-05-03T13:19:53Z</time></trkpt><trkpt lat="44.82084168251675" lon="7.296751673833161"><ele>404.75</ele><time>2026-05-03T13:19:55Z</time></trkpt><trkpt lat="44.82092153953347" lon="7.296872483697509"><ele>404.5</ele><time>2026-05-03T13:19:57Z</time></trkpt><trkpt lat="44.821004566193274" lon="7.296980596016997"><ele>404.25</ele><time>2026-05-03T13:19:59Z</time></trkpt><trkpt lat="44.821082051015864" lon="7.297086451110536"><ele>404.0</ele><time>2026-05-03T13:20:01Z</time></trkpt><trkpt lat="44.82116940434121" lon="7.297196328401748"><ele>402.79999999999995</ele><time>2026-05-03T13:20:03Z</time></trkpt><trkpt lat="44.82123725936665" lon="7.297308806377589"><ele>401.59999999999997</ele><time>2026-05-03T13:20:05Z</time></trkpt><trkpt lat="44.821275844975204" lon="7.297419580602126"><ele>400.4</ele><time>2026-05-03T13:20:07.001Z</time></trkpt><trkpt lat="44.821323850224076" lon="7.297530214392995"><ele>399.2</ele><time>2026-05-03T13:20:09.001Z</time></trkpt><trkpt lat="44.82137345855918" lon="7.2976371935382955"><ele>398.0</ele><time>2026-05-03T13:20:11.001Z</time></trkpt><trkpt lat="44.821425974442455" lon="7.29775130839953"><ele>398.0</ele><time>2026-05-03T13:20:13.001Z</time></trkpt><trkpt lat="44.82148370966078" lon="7.297871736609076"><ele>398.0</ele><time>2026-05-03T13:20:15.001Z</time></trkpt><trkpt lat="44.82154327221152" lon="7.297999829996863"><ele>398.0</ele><time>2026-05-03T13:20:17.001Z</time></trkpt><trkpt lat="44.821610412572575" lon="7.298119382791699"><ele>398.0</ele><time>2026-05-03T13:20:19.001Z</time></trkpt><trkpt lat="44.821695677172755" lon="7.298228474087305"><ele>398.0</ele><time>2026-05-03T13:20:21.001Z</time></trkpt><trkpt lat="44.821779260777795" lon="7.298353837016567"><ele>398.1428571428571</ele><time>2026-05-03T13:20:23.001Z</time></trkpt><trkpt lat="44.821822384081464" lon="7.298420388141826"><ele>398.2857142857143</ele><time>2026-05-03T13:20:24.001Z</time></trkpt><trkpt lat="44.82186619382827" lon="7.298489394575299"><ele>398.42857142857144</ele><time>2026-05-03T13:20:25.001Z</time></trkpt><trkpt lat="44.82190827340201" lon="7.298560097274635"><ele>398.57142857142856</ele><time>2026-05-03T13:20:26.001Z</time></trkpt><trkpt lat="44.821950384840484" lon="7.298631797297467"><ele>398.7142857142857</ele><time>2026-05-03T13:20:27.001Z</time></trkpt><trkpt lat="44.821992319976545" lon="7.298705614961191"><ele>398.85714285714283</ele><time>2026-05-03T13:20:28.001Z</time></trkpt><trkpt lat="44.82203279046913" lon="7.298780788934038"><ele>399.0</ele><time>2026-05-03T13:20:29.001Z</time></trkpt><trkpt lat="44.82207189475388" lon="7.298860457242366"><ele>398.14285714285717</ele><time>2026-05-03T13:20:30.001Z</time></trkpt><trkpt lat="44.82211071523142" lon="7.298936530722913"><ele>397.2857142857143</ele><time>2026-05-03T13:20:31.001Z</time></trkpt><trkpt lat="44.822151660022" lon="7.299015923360381"><ele>396.42857142857144</ele><time>2026-05-03T13:20:32.001Z</time></trkpt><trkpt lat="44.82219465426452" lon="7.29909189684063"><ele>395.57142857142856</ele><time>2026-05-03T13:20:33.001Z</time></trkpt><trkpt lat="44.822236742852986" lon="7.2991651838844405"><ele>394.7142857142857</ele><time>2026-05-03T13:20:34.001Z</time></trkpt><trkpt lat="44.82227928538257" lon="7.299242213261975"><ele>393.8571428571429</ele><time>2026-05-03T13:20:35.001Z</time></trkpt><trkpt lat="44.822328118741886" lon="7.299310566594623"><ele>393.0</ele><time>2026-05-03T13:20:36.001Z</time></trkpt><trkpt lat="44.822379841409315" lon="7.299372304240586"><ele>393.00000000000006</ele><time>2026-05-03T13:20:37.001Z</time></trkpt><trkpt lat="44.82243355376619" lon="7.299430938863659"><ele>393.0</ele><time>2026-05-03T13:20:38.001Z</time></trkpt><trkpt lat="44.8224918848643" lon="7.299482569758791"><ele>393.0</ele><time>2026-05-03T13:20:39.001Z</time></trkpt><trkpt lat="44.822548412333454" lon="7.299532088894026"><ele>393.0</ele><time>2026-05-03T13:20:40.001Z</time></trkpt><trkpt lat="44.82260624337782" lon="7.299575439083934"><ele>393.0</ele><time>2026-05-03T13:20:41.001Z</time></trkpt><trkpt lat="44.822664677082024" lon="7.29962049772397"><ele>393.00000000000006</ele><time>2026-05-03T13:20:42.001Z</time></trkpt><trkpt lat="44.82272009931457" lon="7.299667004650524"><ele>393.0</ele><time>2026-05-03T13:20:43.001Z</time></trkpt><trkpt lat="44.82281798938245" lon="7.299771484681977"><ele>392.8333333333333</ele><time>2026-05-03T13:20:45.001Z</time></trkpt><trkpt lat="44.82291302244584" lon="7.2998711128541744"><ele>392.66666666666663</ele><time>2026-05-03T13:20:47.001Z</time></trkpt><trkpt lat="44.82299215978755" lon="7.2999438716380025"><ele>392.5</ele><time>2026-05-03T13:20:49.001Z</time></trkpt><trkpt lat="44.823053860915" lon="7.299990904094224"><ele>392.3333333333333</ele><time>2026-05-03T13:20:51.001Z</time></trkpt><trkpt lat="44.823131668913966" lon="7.299993687461305"><ele>392.16666666666663</ele><time>2026-05-03T13:20:55.001Z</time></trkpt><trkpt lat="44.82321516330491" lon="7.30000222110958"><ele>392.0</ele><time>2026-05-03T13:20:59.999Z</time></trkpt><trkpt lat="44.823286618547165" lon="7.300049237507783"><ele>391.99999999999994</ele><time>2026-05-03T13:21:03.999Z</time></trkpt><trkpt lat="44.82335619396377" lon="7.300086386725033"><ele>392.0</ele><time>2026-05-03T13:21:07.999Z</time></trkpt><trkpt lat="44.82343841028435" lon="7.300157651322793"><ele>392.0</ele><time>2026-05-03T13:21:10.999Z</time></trkpt><trkpt lat="44.823501037755456" lon="7.300216062064596"><ele>392.0</ele><time>2026-05-03T13:21:12.999Z</time></trkpt><trkpt lat="44.82356512970775" lon="7.300273492646423"><ele>391.99999999999994</ele><time>2026-05-03T13:21:14.999Z</time></trkpt><trkpt lat="44.82362615610054" lon="7.300342075914274"><ele>392.0</ele><time>2026-05-03T13:21:17Z</time></trkpt><trkpt lat="44.82368413384248" lon="7.300415534684837"><ele>392.14285714285717</ele><time>2026-05-03T13:21:19Z</time></trkpt><trkpt lat="44.82373574008894" lon="7.300496014907483"><ele>392.2857142857143</ele><time>2026-05-03T13:21:21Z</time></trkpt><trkpt lat="44.82378473057141" lon="7.300576846416915"><ele>392.42857142857144</ele><time>2026-05-03T13:21:23Z</time></trkpt><trkpt lat="44.8238327432391" lon="7.300650664868153"><ele>392.57142857142856</ele><time>2026-05-03T13:21:25Z</time></trkpt><trkpt lat="44.82387492451589" lon="7.30072389864773"><ele>392.7142857142857</ele><time>2026-05-03T13:21:27Z</time></trkpt><trkpt lat="44.823916676645794" lon="7.300792550950438"><ele>392.8571428571429</ele><time>2026-05-03T13:21:29Z</time></trkpt><trkpt lat="44.82395980035241" lon="7.300864683336884"><ele>393.0</ele><time>2026-05-03T13:21:32Z</time></trkpt><trkpt lat="44.824002256153705" lon="7.30096842352455"><ele>393.0</ele><time>2026-05-03T13:21:36Z</time></trkpt><trkpt lat="44.824053823654076" lon="7.3010392432070645"><ele>393.0</ele><time>2026-05-03T13:21:38Z</time></trkpt><trkpt lat="44.82411018552001" lon="7.301106313107157"><ele>393.0</ele><time>2026-05-03T13:21:40Z</time></trkpt><trkpt lat="44.824172081137746" lon="7.301173192151061"><ele>393.0</ele><time>2026-05-03T13:21:42Z</time></trkpt><trkpt lat="44.824235931555414" lon="7.301240659607533"><ele>393.0</ele><time>2026-05-03T13:21:44Z</time></trkpt><trkpt lat="44.82429797169422" lon="7.301313504765448"><ele>393.0</ele><time>2026-05-03T13:21:46Z</time></trkpt><trkpt lat="44.82435983204214" lon="7.301377448584561"><ele>392.8333333333333</ele><time>2026-05-03T13:21:48Z</time></trkpt><trkpt lat="44.82443444644209" lon="7.301445752776629"><ele>392.66666666666663</ele><time>2026-05-03T13:21:51Z</time></trkpt><trkpt lat="44.824523651160625" lon="7.3014252978810115"><ele>392.5</ele><time>2026-05-03T13:21:54Z</time></trkpt><trkpt lat="44.82458239407729" lon="7.301317741376481"><ele>392.3333333333333</ele><time>2026-05-03T13:21:56Z</time></trkpt><trkpt lat="44.82465673384147" lon="7.301255047704671"><ele>392.16666666666663</ele><time>2026-05-03T13:21:58Z</time></trkpt><trkpt lat="44.82473976348986" lon="7.301256020916285"><ele>392.0</ele><time>2026-05-03T13:22:00Z</time></trkpt><trkpt lat="44.82481557078374" lon="7.30122782532289"><ele>392.16666666666663</ele><time>2026-05-03T13:22:02Z</time></trkpt><trkpt lat="44.82489170224763" lon="7.301213857264269"><ele>392.3333333333333</ele><time>2026-05-03T13:22:04Z</time></trkpt><trkpt lat="44.82495567906372" lon="7.301173842374768"><ele>392.5</ele><time>2026-05-03T13:22:06Z</time></trkpt><trkpt lat="44.8250315158478" lon="7.301154034861387"><ele>392.66666666666663</ele><time>2026-05-03T13:22:08.001Z</time></trkpt><trkpt lat="44.82512655972489" lon="7.301137656462028"><ele>392.8333333333333</ele><time>2026-05-03T13:22:10.001Z</time></trkpt><trkpt lat="44.82523732325183" lon="7.301105257933331"><ele>393.0</ele><time>2026-05-03T13:22:12.001Z</time></trkpt><trkpt lat="44.82532757299832" lon="7.301085161893398"><ele>393.0</ele><time>2026-05-03T13:22:14.001Z</time></trkpt><trkpt lat="44.825434719645756" lon="7.3010703277052675"><ele>393.0</ele><time>2026-05-03T13:22:16.001Z</time></trkpt><trkpt lat="44.82554907084646" lon="7.301033426947421"><ele>393.0</ele><time>2026-05-03T13:22:18.001Z</time></trkpt><trkpt lat="44.82565480074454" lon="7.301001661061035"><ele>393.0</ele><time>2026-05-03T13:22:20.001Z</time></trkpt><trkpt lat="44.82572270087235" lon="7.300981588213606"><ele>393.0</ele><time>2026-05-03T13:22:22.001Z</time></trkpt><trkpt lat="44.82579204430327" lon="7.300987654230541"><ele>393.00000000000006</ele><time>2026-05-03T13:22:29.001Z</time></trkpt><trkpt lat="44.82581028605378" lon="7.30109003644276"><ele>393.0</ele><time>2026-05-03T13:22:32.001Z</time></trkpt><trkpt lat="44.825810813114806" lon="7.301188097233841"><ele>393.0</ele><time>2026-05-03T13:22:34.001Z</time></trkpt><trkpt lat="44.82582882559987" lon="7.301275253257086"><ele>393.0</ele><time>2026-05-03T13:22:35.001Z</time></trkpt><trkpt lat="44.825898049901255" lon="7.301294264535202"><ele>393.0</ele><time>2026-05-03T13:22:37.001Z</time></trkpt><trkpt lat="44.825951377037285" lon="7.301343348817217"><ele>393.00000000000006</ele><time>2026-05-03T13:22:39.001Z</time></trkpt><trkpt lat="44.82599486246443" lon="7.3014303808543914"><ele>393.0</ele><time>2026-05-03T13:22:41.001Z</time></trkpt><trkpt lat="44.82604652709013" lon="7.3015094472783995"><ele>393.1666666666667</ele><time>2026-05-03T13:22:43.001Z</time></trkpt><trkpt lat="44.82610362403335" lon="7.301597656630851"><ele>393.33333333333337</ele><time>2026-05-03T13:22:45.001Z</time></trkpt><trkpt lat="44.82616438565019" lon="7.301705030867081"><ele>393.5</ele><time>2026-05-03T13:22:47.001Z</time></trkpt><trkpt lat="44.826228608229016" lon="7.301821672003753"><ele>393.6666666666667</ele><time>2026-05-03T13:22:49.001Z</time></trkpt><trkpt lat="44.82626933767202" lon="7.301895590533997"><ele>393.83333333333337</ele><time>2026-05-03T13:22:51.001Z</time></trkpt><trkpt lat="44.826288593322374" lon="7.302001659133356"><ele>394.0</ele><time>2026-05-03T13:22:55.001Z</time></trkpt><trkpt lat="44.826219487976466" lon="7.302075146847895"><ele>394.00000000000006</ele><time>2026-05-03T13:22:57.001Z</time></trkpt><trkpt lat="44.82615859600238" lon="7.302147718705997"><ele>394.0</ele><time>2026-05-03T13:22:59.001Z</time></trkpt><trkpt lat="44.82609294914247" lon="7.302231903286333"><ele>394.0</ele><time>2026-05-03T13:23:01.001Z</time></trkpt><trkpt lat="44.82604694874255" lon="7.3023189647251"><ele>394.0</ele><time>2026-05-03T13:23:03.001Z</time></trkpt><trkpt lat="44.82603029817521" lon="7.302448528988378"><ele>394.00000000000006</ele><time>2026-05-03T13:23:04.999Z</time></trkpt><trkpt lat="44.82600453691166" lon="7.302578749406994"><ele>394.0</ele><time>2026-05-03T13:23:06.999Z</time></trkpt><trkpt lat="44.82602988824102" lon="7.302687819251553"><ele>398.0</ele><time>2026-05-03T13:23:08.999Z</time></trkpt></trkseg></trk></gpx>